Darstellungsparameter: Aktuell verwendete Einstellungen:
Skalierung der Graphiken ... ?
xyx+y,   Skalierungsfaktor:      Skalierung: Modus: x, Faktor: 1
Darstellungszeitraum ... ?
Vom - - bis: - -   Zeitraum: 24.05.2003 - 02.06.2003
Min/Max/Avg-Anzeige ... ?
Zeige MMA aktuell
Zeige MMA Monat
Zeige MMA alles
Zeige --A aktuell
Zeige --A Monat
Zeige --A alles
Keine MMA-Anzeige
MMA:
Average (ber die Originaldaten)
MMA-Basis: 24.05.2003 - 02.06.2003
Quicknavigation für Darstellung... ?
Tage:      1T, 2T, 3T, 5T -1T -2T -3T -5T +1T +2T +3T +5T
Wochen: 1W, 2W, 3W -1W -2W -3W +1W +2W +3W
Monate: 1M, 3M, 6M -1M -3M -6M +1M +3M +6M
Jahre:    1J, 3J, 5J, 10J -1J -3J -5J -10J +1J +3J +5J +10J
Nutze für die Darstellung ... ?
Originaldaten oder Mittelwerte auf ...
Stundenbasis Tagesbasis Wochenbasis
Monatsbasis Jahresbasis      Datenbasis: Original-Daten
Darstellen als:
Statistik (Auto) Statistik J:M      Darstellung:
Zur Graphik,    zurück zur Übersicht aller Sensoren.
 
Tabellarische Datenbersicht: ?
 
Sensor: Nr:Datum:Temp:Abs-Feuchte:Windchill:Wind:
Aussen-T/F 1 24-05-2003 00:10:02 15.8 C 8.48 g/m*3 15.8 C 0 km/h
2 24-05-2003 00:20:02 15.8 C 8.62 g/m*3 15.8 C 0 km/h
3 24-05-2003 00:30:02 15.7 C 8.56 g/m*3 15.7 C 0 km/h
4 24-05-2003 00:40:02 15.7 C 8.7 g/m*3 15.7 C 0 km/h
5 24-05-2003 00:50:02 15.6 C 8.64 g/m*3 15.6 C 0 km/h
6 24-05-2003 01:00:02 15.4 C 8.67 g/m*3 15.4 C 0 km/h
7 24-05-2003 01:10:02 15.2 C 8.44 g/m*3 15.2 C 0 km/h
8 24-05-2003 01:20:02 15.1 C 8.64 g/m*3 15.1 C 0 km/h
9 24-05-2003 01:30:02 15.1 C 8.77 g/m*3 15.1 C 0 km/h
10 24-05-2003 01:40:02 15 C 8.59 g/m*3 15 C 0 km/h
11 24-05-2003 01:50:02 15 C 8.59 g/m*3 15 C 0 km/h
12 24-05-2003 02:00:02 15 C 8.59 g/m*3 15 C 0 km/h
13 24-05-2003 02:10:02 15 C 8.72 g/m*3 15 C 0 km/h
14 24-05-2003 02:20:02 14.9 C 8.79 g/m*3 14.9 C 0 km/h
15 24-05-2003 02:30:02 14.6 C 8.76 g/m*3 14.6 C 0 km/h
16 24-05-2003 02:40:02 14.6 C 8.76 g/m*3 14.6 C 0 km/h
17 24-05-2003 02:50:02 14.6 C 8.76 g/m*3 14.6 C 0 km/h
18 24-05-2003 03:00:02 14.4 C 8.65 g/m*3 14.4 C 0 km/h
19 24-05-2003 03:10:02 14.2 C 8.67 g/m*3 14.2 C 0 km/h
20 24-05-2003 03:20:02 14.1 C 8.62 g/m*3 14.1 C 0 km/h
21 24-05-2003 03:30:02 14 C 8.68 g/m*3 14 C 0 km/h
22 24-05-2003 03:40:02 14 C 8.56 g/m*3 14 C 0 km/h
23 24-05-2003 03:50:02 13.7 C 8.64 g/m*3 13.7 C 0 km/h
24 24-05-2003 04:00:02 13.6 C 8.71 g/m*3 13.6 C 0 km/h
25 24-05-2003 04:10:02 13.5 C 8.66 g/m*3 13.5 C 0 km/h
Sensor: Nr:Datum:Temp:Abs-Feuchte:Windchill:Wind:
Aussen-T/F 26 24-05-2003 04:20:02 13.3 C 8.55 g/m*3 13.3 C 0 km/h
27 24-05-2003 04:30:02 13.3 C 8.66 g/m*3 13.3 C 0 km/h
28 24-05-2003 04:40:02 13.3 C 8.78 g/m*3 13.3 C 0 km/h
29 24-05-2003 04:50:02 13.3 C 8.78 g/m*3 13.3 C 0 km/h
30 24-05-2003 05:00:02 13.3 C 8.9 g/m*3 13.3 C 0 km/h
31 24-05-2003 05:10:02 13.4 C 8.95 g/m*3 13.4 C 0 km/h
32 24-05-2003 05:20:02 13.3 C 8.9 g/m*3 13.3 C 0 km/h
33 24-05-2003 05:30:02 13.2 C 8.96 g/m*3 13.2 C 0 km/h
34 24-05-2003 05:40:02 13.2 C 9.07 g/m*3 13.2 C 0 km/h
35 24-05-2003 05:50:02 13.1 C 9.01 g/m*3 13.1 C 0 km/h
36 24-05-2003 06:00:02 13 C 8.96 g/m*3 13 C 0 km/h
37 24-05-2003 06:10:02 13 C 9.07 g/m*3 13 C 0 km/h
38 24-05-2003 06:20:02 13.1 C 9.24 g/m*3 13.1 C 0 km/h
39 24-05-2003 06:30:02 13.3 C 9.24 g/m*3 13.3 C 0 km/h
40 24-05-2003 06:40:02 13.5 C 9.24 g/m*3 13.5 C 0 km/h
41 24-05-2003 06:50:02 13.6 C 9.3 g/m*3 13.6 C 0 km/h
42 24-05-2003 07:00:02 13.7 C 9.35 g/m*3 13.7 C 0 km/h
43 24-05-2003 07:10:02 13.9 C 9.35 g/m*3 13.9 C 0 km/h
44 24-05-2003 07:20:02 13.9 C 9.35 g/m*3 13.9 C 0 km/h
45 24-05-2003 07:30:02 14.2 C 9.4 g/m*3 14.2 C 0 km/h
46 24-05-2003 07:40:02 14.3 C 9.34 g/m*3 14.3 C 0 km/h
47 24-05-2003 07:50:02 14.5 C 9.33 g/m*3 14.5 C 0 km/h
48 24-05-2003 08:00:02 14.7 C 9.32 g/m*3 14.7 C 0 km/h
49 24-05-2003 08:10:02 14.8 C 9.5 g/m*3 14.8 C 0 km/h
50 24-05-2003 08:20:02 14.4 C 9.64 g/m*3 14.4 C 0 km/h
Sensor: Nr:Datum:Temp:Abs-Feuchte:Windchill:Wind:
Aussen-T/F 51 24-05-2003 08:30:02 14.2 C 9.65 g/m*3 14.2 C 0 km/h
52 24-05-2003 08:40:02 14.4 C 9.64 g/m*3 14.4 C 0 km/h
53 24-05-2003 08:50:02 14.8 C 9.88 g/m*3 14.8 C 0 km/h
54 24-05-2003 09:00:02 15 C 9.75 g/m*3 15 C 0 km/h
55 24-05-2003 09:10:02 15.7 C 10.03 g/m*3 15.7 C 0 km/h
56 24-05-2003 09:20:02 16.1 C 10.14 g/m*3 16.1 C 0 km/h
57 24-05-2003 09:30:02 16.9 C 10.64 g/m*3 16.9 C 0 km/h
58 24-05-2003 09:40:02 17.4 C 10.08 g/m*3 17.4 C 0 km/h
59 24-05-2003 09:50:02 17.9 C 10.38 g/m*3 17.9 C 0 km/h
60 24-05-2003 10:00:02 18.2 C 10.1 g/m*3 18.2 C 0 km/h
61 24-05-2003 10:10:02 18.1 C 9.89 g/m*3 18.1 C 0 km/h
62 24-05-2003 10:20:02 18.3 C 10.16 g/m*3 18.3 C 0 km/h
63 24-05-2003 10:30:02 19 C 10.1 g/m*3 19 C 0 km/h
64 24-05-2003 10:40:02 19.6 C 9.96 g/m*3 19.6 C 0 km/h
65 24-05-2003 10:50:02 19.7 C 9.68 g/m*3 19.7 C 0 km/h
66 24-05-2003 11:00:02 20.2 C 9.79 g/m*3 20.2 C 0 km/h
67 24-05-2003 11:10:02 20.4 C 9.73 g/m*3 20.4 C 0 km/h
68 24-05-2003 11:20:02 20.3 C 9.85 g/m*3 20.3 C 0 km/h
69 24-05-2003 11:30:02 20.3 C 10.02 g/m*3 20.3 C 0 km/h
70 24-05-2003 11:40:01 20.8 C 10.32 g/m*3 20.8 C 0 km/h
71 24-05-2003 11:50:01 21.6 C 10.05 g/m*3 21.6 C 0 km/h
72 24-05-2003 12:00:01 22 C 9.7 g/m*3 22 C 0 km/h
73 24-05-2003 12:10:00 22.6 C 9.84 g/m*3 22.6 C 0 km/h
74 24-05-2003 12:20:00 22.3 C 9.08 g/m*3 22.3 C 0 km/h
75 24-05-2003 12:30:00 22.7 C 9.5 g/m*3 22.7 C 0 km/h
Sensor: Nr:Datum:Temp:Abs-Feuchte:Windchill:Wind:
Aussen-T/F 76 24-05-2003 12:40:01 23.4 C 9.04 g/m*3 23.4 C 0 km/h
77 24-05-2003 12:50:01 23.9 C 9.74 g/m*3 23.9 C 0 km/h
78 24-05-2003 13:00:01 24.1 C 9.19 g/m*3 24.1 C 0 km/h
79 24-05-2003 13:10:02 24.4 C 9.57 g/m*3 24.4 C 0 km/h
80 24-05-2003 13:20:02 24.6 C 9.68 g/m*3 24.6 C 0 km/h
81 24-05-2003 13:30:02 25.2 C 8.85 g/m*3 25.2 C 0 km/h
82 24-05-2003 13:40:01 24.8 C 9.1 g/m*3 24.8 C 0 km/h
83 24-05-2003 13:50:01 24.9 C 9.16 g/m*3 24.9 C 0 km/h
84 24-05-2003 14:00:01 25.9 C 9.68 g/m*3 25.9 C 0 km/h
85 24-05-2003 14:10:01 26.5 C 9.01 g/m*3 26.5 C 0 km/h
86 24-05-2003 14:20:01 26.3 C 9.16 g/m*3 26.3 C 0 km/h
87 24-05-2003 14:30:01 26.7 C 9.87 g/m*3 26.7 C 0 km/h
88 24-05-2003 14:40:00 26.9 C 9.21 g/m*3 26.9 C 0 km/h
89 24-05-2003 14:50:00 27 C 9.52 g/m*3 27 C 0 km/h
90 24-05-2003 15:00:00 27 C 9.01 g/m*3 27 C 0 km/h
91 24-05-2003 15:10:02 27.1 C 8.8 g/m*3 27.1 C 0 km/h
92 24-05-2003 15:20:02 26.6 C 9.06 g/m*3 26.6 C 0 km/h
93 24-05-2003 15:30:02 26.9 C 8.96 g/m*3 26.9 C 0 km/h
94 24-05-2003 15:40:01 26.8 C 8.91 g/m*3 26.8 C 0 km/h
95 24-05-2003 15:50:01 26.2 C 8.86 g/m*3 26.2 C 0 km/h
96 24-05-2003 16:00:01 26.3 C 8.91 g/m*3 26.3 C 0 km/h
97 24-05-2003 16:10:01 26.6 C 9.06 g/m*3 26.6 C 0 km/h
98 24-05-2003 16:20:01 26.9 C 9.21 g/m*3 26.9 C 0 km/h
99 24-05-2003 16:30:01 28.2 C 9.62 g/m*3 28.2 C 0 km/h
100 24-05-2003 16:40:02 29.1 C 9.53 g/m*3 29.1 C 0 km/h
Sensor: Nr:Datum:Temp:Abs-Feuchte:Windchill:Wind:
Aussen-T/F 101 24-05-2003 16:50:02 28.9 C 9.71 g/m*3 28.9 C 0 km/h
102 24-05-2003 17:00:02 29.2 C 9.87 g/m*3 29.2 C 0 km/h
103 24-05-2003 17:10:01 28.7 C 9.61 g/m*3 28.7 C 0 km/h
104 24-05-2003 17:20:01 28.4 C 10.84 g/m*3 28.4 C 0 km/h
105 24-05-2003 17:30:01 27.5 C 9.52 g/m*3 27.5 C 0 km/h
106 24-05-2003 17:40:01 27.5 C 9.52 g/m*3 27.5 C 0 km/h
107 24-05-2003 17:50:01 27.3 C 9.68 g/m*3 27.3 C 0 km/h
108 24-05-2003 18:00:01 27 C 9.52 g/m*3 27 C 0 km/h
109 24-05-2003 18:10:02 27.7 C 9.36 g/m*3 27.7 C 0 km/h
110 24-05-2003 18:20:02 28 C 9.52 g/m*3 28 C 0 km/h
111 24-05-2003 18:30:02 27.8 C 9.41 g/m*3 27.8 C 0 km/h
112 24-05-2003 18:40:02 26 C 9.01 g/m*3 26 C 0 km/h
113 24-05-2003 18:50:02 24.5 C 9.4 g/m*3 24.5 C 0 km/h
114 24-05-2003 19:00:02 24.1 C 9.85 g/m*3 24.1 C 0 km/h
115 24-05-2003 19:10:01 23.2 C 9.98 g/m*3 23.2 C 0 km/h
116 24-05-2003 19:20:01 23.2 C 9.98 g/m*3 23.2 C 0 km/h
117 24-05-2003 19:30:01 23.4 C 10.09 g/m*3 23.4 C 0 km/h
118 24-05-2003 19:40:01 23.4 C 10.09 g/m*3 23.4 C 0 km/h
119 24-05-2003 19:50:01 22.8 C 10.16 g/m*3 22.8 C 0 km/h
120 24-05-2003 20:10:01 22.5 C 10.39 g/m*3 22.5 C 0 km/h
121 24-05-2003 20:20:01 22.3 C 10.47 g/m*3 22.3 C 0 km/h
122 24-05-2003 20:30:01 22 C 10.29 g/m*3 22 C 0 km/h
123 24-05-2003 20:40:02 21.7 C 10.3 g/m*3 21.7 C 0 km/h
124 24-05-2003 20:50:02 21.5 C 9.99 g/m*3 21.5 C 0 km/h
125 24-05-2003 21:00:02 21.4 C 10.12 g/m*3 21.4 C 0 km/h
Sensor: Nr:Datum:Temp:Abs-Feuchte:Windchill:Wind:
Aussen-T/F 126 24-05-2003 21:10:01 21.2 C 10.19 g/m*3 21.2 C 0 km/h
127 24-05-2003 21:20:01 21.1 C 10.13 g/m*3 21.1 C 0 km/h
128 24-05-2003 21:30:01 20.8 C 10.14 g/m*3 20.8 C 0 km/h
129 24-05-2003 21:40:01 20.6 C 10.38 g/m*3 20.6 C 0 km/h
130 24-05-2003 21:50:01 20.2 C 10.32 g/m*3 20.2 C 0 km/h
131 24-05-2003 22:00:01 20 C 10.71 g/m*3 20 C 0 km/h
132 24-05-2003 22:10:01 19.6 C 10.64 g/m*3 19.6 C 0 km/h
133 24-05-2003 22:20:01 19.6 C 10.8 g/m*3 19.6 C 0 km/h
134 24-05-2003 22:30:01 17.8 C 11.38 g/m*3 17.8 C 0 km/h
135 24-05-2003 22:41:03 17.4 C 12.15 g/m*3 17.4 C 0 km/h
136 24-05-2003 22:51:03 17.5 C 12.37 g/m*3 17.5 C 0 km/h
137 24-05-2003 23:01:03 17.1 C 11.06 g/m*3 17.1 C 0 km/h
138 24-05-2003 23:11:03 16.6 C 11.02 g/m*3 16.6 C 0 km/h
139 24-05-2003 23:21:03 16.3 C 10.82 g/m*3 16.3 C 0 km/h
140 24-05-2003 23:31:03 16.3 C 10.96 g/m*3 16.3 C 0 km/h
141 24-05-2003 23:41:03 16.2 C 11.17 g/m*3 16.2 C 0 km/h
142 24-05-2003 23:51:03 16.2 C 11.03 g/m*3 16.2 C 0 km/h
143 25-05-2003 00:01:03 16.2 C 10.89 g/m*3 16.2 C 0 km/h
144 25-05-2003 00:11:03 16.2 C 11.03 g/m*3 16.2 C 0 km/h
145 25-05-2003 00:21:03 16.3 C 10.96 g/m*3 16.3 C 0 km/h
146 25-05-2003 00:31:03 16.1 C 10.69 g/m*3 16.1 C 0 km/h
147 25-05-2003 00:41:03 16.2 C 10.62 g/m*3 16.2 C 0 km/h
148 25-05-2003 00:51:03 16.1 C 10.55 g/m*3 16.1 C 0 km/h
149 25-05-2003 01:01:03 15.9 C 10.29 g/m*3 15.9 C 0 km/h
150 25-05-2003 01:11:03 15.8 C 9.96 g/m*3 15.8 C 0 km/h
Sensor: Nr:Datum:Temp:Abs-Feuchte:Windchill:Wind:
Aussen-T/F 151 25-05-2003 01:21:03 15.9 C 10.29 g/m*3 15.9 C 0 km/h
152 25-05-2003 01:31:03 16 C 10.22 g/m*3 16 C 0 km/h
153 25-05-2003 01:41:03 16 C 10.08 g/m*3 16 C 0 km/h
154 25-05-2003 01:51:03 15.7 C 10.17 g/m*3 15.7 C 0 km/h
155 25-05-2003 02:01:03 15.6 C 10.24 g/m*3 15.6 C 0 km/h
156 25-05-2003 02:11:03 15.4 C 10.12 g/m*3 15.4 C 0 km/h
157 25-05-2003 02:21:03 15.6 C 10.37 g/m*3 15.6 C 0 km/h
158 25-05-2003 02:31:03 15.6 C 10.24 g/m*3 15.6 C 0 km/h
159 25-05-2003 02:41:03 15.3 C 10.19 g/m*3 15.3 C 0 km/h
160 25-05-2003 02:51:03 15.5 C 10.31 g/m*3 15.5 C 0 km/h
161 25-05-2003 03:01:03 15.5 C 10.31 g/m*3 15.5 C 0 km/h
162 25-05-2003 03:11:03 15.4 C 10.38 g/m*3 15.4 C 0 km/h
163 25-05-2003 03:21:03 15.4 C 10.51 g/m*3 15.4 C 0 km/h
164 25-05-2003 03:31:03 15.2 C 10.77 g/m*3 15.2 C 0 km/h
165 25-05-2003 03:41:03 14.9 C 10.83 g/m*3 14.9 C 0 km/h
166 25-05-2003 03:51:02 14.8 C 11.02 g/m*3 14.8 C 0 km/h
167 25-05-2003 03:51:03 14.8 C 11.02 g/m*3 14.8 C 0 km/h
168 25-05-2003 04:01:02 14.4 C 10.88 g/m*3 14.4 C 0 km/h
169 25-05-2003 04:11:02 14.4 C 11 g/m*3 14.4 C 0 km/h
170 25-05-2003 04:21:02 14.4 C 11 g/m*3 14.4 C 0 km/h
171 25-05-2003 04:31:02 14.3 C 10.93 g/m*3 14.3 C 0 km/h
172 25-05-2003 04:41:02 14.3 C 10.81 g/m*3 14.3 C 0 km/h
173 25-05-2003 04:51:02 14.3 C 10.69 g/m*3 14.3 C 0 km/h
174 25-05-2003 05:01:02 14.3 C 10.69 g/m*3 14.3 C 0 km/h
175 25-05-2003 05:11:02 14.2 C 10.62 g/m*3 14.2 C 0 km/h
Sensor: Nr:Datum:Temp:Abs-Feuchte:Windchill:Wind:
Aussen-T/F 176 25-05-2003 05:21:02 14.1 C 10.56 g/m*3 14.1 C 0 km/h
177 25-05-2003 05:31:02 14.1 C 10.68 g/m*3 14.1 C 0 km/h
178 25-05-2003 05:41:02 14 C 10.49 g/m*3 14 C 0 km/h
179 25-05-2003 05:51:02 14 C 10.49 g/m*3 14 C 0 km/h
180 25-05-2003 06:01:02 13.9 C 10.43 g/m*3 13.9 C 0 km/h
181 25-05-2003 06:11:02 13.6 C 10.24 g/m*3 13.6 C 0 km/h
182 25-05-2003 06:21:02 13.5 C 10.18 g/m*3 13.5 C 0 km/h
183 25-05-2003 06:31:01 13.5 C 10.18 g/m*3 13.5 C 0 km/h
184 25-05-2003 06:31:02 13.5 C 10.18 g/m*3 13.5 C 0 km/h
185 25-05-2003 06:41:01 13.6 C 10.12 g/m*3 13.6 C 0 km/h
186 25-05-2003 06:51:01 13.6 C 10.12 g/m*3 13.6 C 0 km/h
187 25-05-2003 07:01:01 13.7 C 10.18 g/m*3 13.7 C 0 km/h
188 25-05-2003 07:11:01 13.6 C 10 g/m*3 13.6 C 0 km/h
189 25-05-2003 07:21:01 13.7 C 9.95 g/m*3 13.7 C 0 km/h
190 25-05-2003 07:31:01 13.6 C 10 g/m*3 13.6 C 0 km/h
191 25-05-2003 07:41:01 13.5 C 10.06 g/m*3 13.5 C 0 km/h
192 25-05-2003 07:51:01 13.7 C 10.07 g/m*3 13.7 C 0 km/h
193 25-05-2003 08:01:01 13.9 C 10.19 g/m*3 13.9 C 0 km/h
194 25-05-2003 08:11:01 13.8 C 9.77 g/m*3 13.8 C 0 km/h
195 25-05-2003 08:21:01 13.9 C 9.83 g/m*3 13.9 C 0 km/h
196 25-05-2003 08:31:01 14.2 C 9.77 g/m*3 14.2 C 0 km/h
197 25-05-2003 08:41:01 14.5 C 9.45 g/m*3 14.5 C 0 km/h
198 25-05-2003 08:51:01 14.7 C 9.57 g/m*3 14.7 C 0 km/h
199 25-05-2003 09:01:01 14.7 C 9.57 g/m*3 14.7 C 0 km/h
200 25-05-2003 09:11:01 14.6 C 9.39 g/m*3 14.6 C 0 km/h
Sensor: Nr:Datum:Temp:Abs-Feuchte:Windchill:Wind:
Aussen-T/F 201 25-05-2003 09:21:01 14.5 C 9.2 g/m*3 14.5 C 0 km/h
202 25-05-2003 09:31:01 14.5 C 9.2 g/m*3 14.5 C 0 km/h
203 25-05-2003 09:41:01 14.8 C 9.25 g/m*3 14.8 C 0 km/h
204 25-05-2003 09:51:01 15.3 C 9.14 g/m*3 15.3 C 0 km/h
205 25-05-2003 10:01:01 15.4 C 9.07 g/m*3 15.4 C 0 km/h
206 25-05-2003 10:11:01 15.4 C 8.8 g/m*3 15.4 C 0 km/h
207 25-05-2003 10:21:01 15.7 C 8.96 g/m*3 15.7 C 0 km/h
208 25-05-2003 10:31:01 15.9 C 8.8 g/m*3 15.9 C 0 km/h
209 25-05-2003 10:41:01 16.3 C 8.74 g/m*3 16.3 C 0 km/h
210 25-05-2003 10:51:01 16.4 C 8.79 g/m*3 16.4 C 0 km/h
211 25-05-2003 11:01:01 16.8 C 9.01 g/m*3 16.8 C 0 km/h
212 25-05-2003 11:11:02 17.1 C 8.44 g/m*3 17.1 C 0 km/h
213 25-05-2003 11:21:02 17.3 C 8.25 g/m*3 17.3 C 0 km/h
214 25-05-2003 11:31:02 17.7 C 8.15 g/m*3 17.7 C 0 km/h
215 25-05-2003 11:41:02 17.7 C 8 g/m*3 17.7 C 0 km/h
216 25-05-2003 11:51:02 17.7 C 8 g/m*3 17.7 C 0 km/h
217 25-05-2003 12:01:02 17.5 C 8.2 g/m*3 17.5 C 0 km/h
218 25-05-2003 12:11:02 17.6 C 8.1 g/m*3 17.6 C 0 km/h
219 25-05-2003 12:21:02 17.2 C 8.2 g/m*3 17.2 C 0 km/h
220 25-05-2003 12:31:02 17.5 C 7.9 g/m*3 17.5 C 0 km/h
221 25-05-2003 12:41:00 17.7 C 7.69 g/m*3 17.7 C 0 km/h
222 25-05-2003 12:51:00 17.6 C 7.5 g/m*3 17.6 C 0 km/h
223 25-05-2003 13:01:00 17.5 C 7.45 g/m*3 17.5 C 0 km/h
224 25-05-2003 13:11:01 17.8 C 7.74 g/m*3 17.8 C 0 km/h
225 25-05-2003 13:21:01 18.3 C 7.66 g/m*3 18.3 C 0 km/h
Sensor: Nr:Datum:Temp:Abs-Feuchte:Windchill:Wind:
Aussen-T/F 226 25-05-2003 13:31:01 18.3 C 7.35 g/m*3 18.3 C 0 km/h
227 25-05-2003 13:41:01 18.6 C 7.32 g/m*3 18.6 C 0 km/h
228 25-05-2003 13:51:01 18.9 C 7.13 g/m*3 18.9 C 0 km/h
229 25-05-2003 14:01:01 18.8 C 7.25 g/m*3 18.8 C 0 km/h
230 25-05-2003 14:11:02 18 C 7.22 g/m*3 18 C 0 km/h
231 25-05-2003 14:21:02 17.4 C 7.56 g/m*3 17.4 C 0 km/h
232 25-05-2003 14:31:02 17.6 C 7.65 g/m*3 17.6 C 0 km/h
233 25-05-2003 14:41:01 18.1 C 7.42 g/m*3 18.1 C 0 km/h
234 25-05-2003 14:51:01 18.3 C 7.35 g/m*3 18.3 C 0 km/h
235 25-05-2003 15:01:01 18.9 C 7.45 g/m*3 18.9 C 0 km/h
236 25-05-2003 15:11:01 19.5 C 7.72 g/m*3 19.5 C 0 km/h
237 25-05-2003 15:21:01 19.1 C 7.05 g/m*3 19.1 C 0 km/h
238 25-05-2003 15:31:01 19.2 C 7.09 g/m*3 19.2 C 0 km/h
239 25-05-2003 15:41:01 19.5 C 7.05 g/m*3 19.5 C 0 km/h
240 25-05-2003 15:51:01 19.7 C 7.3 g/m*3 19.7 C 0 km/h
241 25-05-2003 16:01:01 18.9 C 6.97 g/m*3 18.9 C 0 km/h
242 25-05-2003 16:11:02 19 C 6.52 g/m*3 19 C 0 km/h
243 25-05-2003 16:21:02 18.8 C 6.6 g/m*3 18.8 C 0 km/h
244 25-05-2003 16:31:02 18.9 C 6.64 g/m*3 18.9 C 0 km/h
245 25-05-2003 16:41:01 18.9 C 6.97 g/m*3 18.9 C 0 km/h
246 25-05-2003 16:51:01 19 C 6.84 g/m*3 19 C 0 km/h
247 25-05-2003 17:01:01 19.5 C 7.22 g/m*3 19.5 C 0 km/h
248 25-05-2003 17:11:01 19.1 C 6.88 g/m*3 19.1 C 0 km/h
249 25-05-2003 17:21:01 19 C 7.17 g/m*3 19 C 0 km/h
250 25-05-2003 17:31:01 18.5 C 7.12 g/m*3 18.5 C 0 km/h
Sensor: Nr:Datum:Temp:Abs-Feuchte:Windchill:Wind:
Aussen-T/F 251 25-05-2003 17:41:02 18 C 7.07 g/m*3 18 C 0 km/h
252 25-05-2003 17:51:02 17.9 C 7.18 g/m*3 17.9 C 0 km/h
253 25-05-2003 18:01:02 17.9 C 7.02 g/m*3 17.9 C 0 km/h
254 25-05-2003 18:11:02 18 C 6.91 g/m*3 18 C 0 km/h
255 25-05-2003 18:21:02 17.7 C 6.94 g/m*3 17.7 C 0 km/h
256 25-05-2003 18:31:02 17.7 C 7.09 g/m*3 17.7 C 0 km/h
257 25-05-2003 18:41:00 17.5 C 7.16 g/m*3 17.5 C 0 km/h
258 25-05-2003 18:51:00 17.3 C 6.92 g/m*3 17.3 C 0 km/h
259 25-05-2003 19:01:00 17.5 C 7.01 g/m*3 17.5 C 0 km/h
260 25-05-2003 19:11:02 17.3 C 7.07 g/m*3 17.3 C 0 km/h
261 25-05-2003 19:21:02 17.2 C 7.18 g/m*3 17.2 C 0 km/h
262 25-05-2003 19:31:02 17.2 C 7.32 g/m*3 17.2 C 0 km/h
263 25-05-2003 19:41:01 17.1 C 7.42 g/m*3 17.1 C 0 km/h
264 25-05-2003 19:51:01 16.9 C 7.34 g/m*3 16.9 C 0 km/h
265 25-05-2003 20:01:01 17 C 7.38 g/m*3 17 C 0 km/h
266 25-05-2003 20:11:01 16.9 C 7.34 g/m*3 16.9 C 0 km/h
267 25-05-2003 20:21:01 16.9 C 7.48 g/m*3 16.9 C 0 km/h
268 25-05-2003 20:31:01 16.6 C 7.63 g/m*3 16.6 C 0 km/h
269 25-05-2003 20:41:00 16.5 C 7.58 g/m*3 16.5 C 0 km/h
270 25-05-2003 20:51:00 16.2 C 7.58 g/m*3 16.2 C 0 km/h
271 25-05-2003 21:01:00 15.6 C 7.71 g/m*3 15.6 C 0 km/h
272 25-05-2003 21:11:01 15 C 7.44 g/m*3 15 C 0 km/h
273 25-05-2003 21:21:01 14.4 C 7.54 g/m*3 14.4 C 0 km/h
274 25-05-2003 21:31:01 14.1 C 7.52 g/m*3 14.1 C 0 km/h
275 25-05-2003 21:42:01 14.1 C 7.65 g/m*3 14.1 C 0 km/h
Sensor: Nr:Datum:Temp:Abs-Feuchte:Windchill:Wind:
Aussen-T/F 276 25-05-2003 21:52:01 14.1 C 7.77 g/m*3 14.1 C 0 km/h
277 25-05-2003 22:02:01 14.1 C 8.01 g/m*3 14.1 C 0 km/h
278 25-05-2003 22:12:01 14.1 C 8.01 g/m*3 14.1 C 0 km/h
279 25-05-2003 22:22:01 14.2 C 8.06 g/m*3 14.2 C 0 km/h
280 25-05-2003 22:32:01 14.2 C 7.94 g/m*3 14.2 C 0 km/h
281 25-05-2003 22:42:01 14.1 C 7.89 g/m*3 14.1 C 0 km/h
282 25-05-2003 22:52:01 13.7 C 8.05 g/m*3 13.7 C 0 km/h
283 25-05-2003 23:02:01 13.6 C 8.12 g/m*3 13.6 C 0 km/h
284 25-05-2003 23:12:01 13.4 C 8.02 g/m*3 13.4 C 0 km/h
285 25-05-2003 23:22:01 13.5 C 7.95 g/m*3 13.5 C 0 km/h
286 25-05-2003 23:32:01 13.5 C 8.07 g/m*3 13.5 C 0 km/h
287 25-05-2003 23:42:01 13.4 C 7.9 g/m*3 13.4 C 0 km/h
288 25-05-2003 23:52:01 13.4 C 7.9 g/m*3 13.4 C 0 km/h
289 26-05-2003 00:02:01 13.1 C 7.87 g/m*3 13.1 C 0 km/h
290 26-05-2003 00:12:01 13.1 C 8.1 g/m*3 13.1 C 0 km/h
291 26-05-2003 00:22:01 13.2 C 8.04 g/m*3 13.2 C 0 km/h
292 26-05-2003 00:32:01 13.3 C 8.09 g/m*3 13.3 C 0 km/h
293 26-05-2003 00:42:01 13.2 C 8.27 g/m*3 13.2 C 0 km/h
294 26-05-2003 00:52:01 13.2 C 8.04 g/m*3 13.2 C 0 km/h
295 26-05-2003 01:02:01 13.1 C 8.22 g/m*3 13.1 C 0 km/h
296 26-05-2003 01:12:01 13 C 8.51 g/m*3 13 C 0 km/h
297 26-05-2003 01:22:01 12.7 C 8.57 g/m*3 12.7 C 0 km/h
298 26-05-2003 01:32:01 12.8 C 8.51 g/m*3 12.8 C 0 km/h
299 26-05-2003 01:42:01 13 C 8.39 g/m*3 13 C 0 km/h
300 26-05-2003 01:52:01 13.1 C 8.22 g/m*3 13.1 C 0 km/h
Sensor: Nr:Datum:Temp:Abs-Feuchte:Windchill:Wind:
Aussen-T/F 301 26-05-2003 02:02:01 13.1 C 8.33 g/m*3 13.1 C 0 km/h
302 26-05-2003 02:12:01 13.1 C 8.44 g/m*3 13.1 C 0 km/h
303 26-05-2003 02:22:01 13 C 8.28 g/m*3 13 C 0 km/h
304 26-05-2003 02:32:01 13 C 8.39 g/m*3 13 C 0 km/h
305 26-05-2003 02:42:01 12.9 C 8.34 g/m*3 12.9 C 0 km/h
306 26-05-2003 02:52:01 12.9 C 8.34 g/m*3 12.9 C 0 km/h
307 26-05-2003 03:02:01 12.8 C 8.29 g/m*3 12.8 C 0 km/h
308 26-05-2003 03:12:01 12.5 C 8.36 g/m*3 12.5 C 0 km/h
309 26-05-2003 03:22:01 12.4 C 8.3 g/m*3 12.4 C 0 km/h
310 26-05-2003 03:32:01 12.5 C 8.36 g/m*3 12.5 C 0 km/h
311 26-05-2003 03:42:01 12.5 C 8.25 g/m*3 12.5 C 0 km/h
312 26-05-2003 03:52:01 12.5 C 8.14 g/m*3 12.5 C 0 km/h
313 26-05-2003 04:02:01 12.5 C 8.14 g/m*3 12.5 C 0 km/h
314 26-05-2003 04:12:01 12.5 C 8.03 g/m*3 12.5 C 0 km/h
315 26-05-2003 04:22:01 12.5 C 8.03 g/m*3 12.5 C 0 km/h
316 26-05-2003 04:32:01 12.5 C 8.14 g/m*3 12.5 C 0 km/h
317 26-05-2003 04:42:01 12.5 C 8.03 g/m*3 12.5 C 0 km/h
318 26-05-2003 04:52:01 12.4 C 7.98 g/m*3 12.4 C 0 km/h
319 26-05-2003 05:02:01 12.4 C 8.09 g/m*3 12.4 C 0 km/h
320 26-05-2003 05:12:01 12.3 C 8.04 g/m*3 12.3 C 0 km/h
321 26-05-2003 05:22:01 12.3 C 8.04 g/m*3 12.3 C 0 km/h
322 26-05-2003 05:32:01 12.3 C 8.14 g/m*3 12.3 C 0 km/h
323 26-05-2003 05:42:01 12.4 C 8.09 g/m*3 12.4 C 0 km/h
324 26-05-2003 05:52:01 12.3 C 8.14 g/m*3 12.3 C 0 km/h
325 26-05-2003 06:02:01 12.3 C 8.14 g/m*3 12.3 C 0 km/h
Sensor: Nr:Datum:Temp:Abs-Feuchte:Windchill:Wind:
Aussen-T/F 326 26-05-2003 06:12:01 12.4 C 8.19 g/m*3 12.4 C 0 km/h
327 26-05-2003 06:22:01 12.5 C 8.25 g/m*3 12.5 C 0 km/h
328 26-05-2003 06:32:01 12.6 C 8.3 g/m*3 12.6 C 0 km/h
329 26-05-2003 06:42:01 12.7 C 8.35 g/m*3 12.7 C 0 km/h
330 26-05-2003 06:52:01 12.7 C 8.35 g/m*3 12.7 C 0 km/h
331 26-05-2003 07:02:01 12.8 C 8.4 g/m*3 12.8 C 0 km/h
332 26-05-2003 07:12:01 12.9 C 8.34 g/m*3 12.9 C 0 km/h
333 26-05-2003 07:22:01 13 C 8.28 g/m*3 13 C 0 km/h
334 26-05-2003 07:32:01 13.2 C 8.38 g/m*3 13.2 C 0 km/h
335 26-05-2003 07:42:01 13.2 C 8.27 g/m*3 13.2 C 0 km/h
336 26-05-2003 07:52:01 13.4 C 8.37 g/m*3 13.4 C 0 km/h
337 26-05-2003 08:02:01 13.6 C 8.36 g/m*3 13.6 C 0 km/h
338 26-05-2003 08:12:01 13.9 C 8.51 g/m*3 13.9 C 0 km/h
339 26-05-2003 08:22:01 14.2 C 8.3 g/m*3 14.2 C 0 km/h
340 26-05-2003 08:32:02 14.3 C 8.35 g/m*3 14.3 C 0 km/h
341 26-05-2003 08:42:02 14.6 C 8.51 g/m*3 14.6 C 0 km/h
342 26-05-2003 08:52:02 14.8 C 8.49 g/m*3 14.8 C 0 km/h
343 26-05-2003 09:02:01 15.1 C 8.39 g/m*3 15.1 C 0 km/h
344 26-05-2003 09:12:01 15.1 C 8.26 g/m*3 15.1 C 0 km/h
345 26-05-2003 09:22:01 15.5 C 8.46 g/m*3 15.5 C 0 km/h
346 26-05-2003 09:32:01 15.6 C 8.25 g/m*3 15.6 C 0 km/h
347 26-05-2003 09:42:01 16.3 C 8.46 g/m*3 16.3 C 0 km/h
348 26-05-2003 09:52:01 16.7 C 8.38 g/m*3 16.7 C 0 km/h
349 26-05-2003 10:02:00 16.7 C 8.24 g/m*3 16.7 C 0 km/h
350 26-05-2003 10:12:00 17.3 C 8.4 g/m*3 17.3 C 0 km/h
Sensor: Nr:Datum:Temp:Abs-Feuchte:Windchill:Wind:
Aussen-T/F 351 26-05-2003 10:22:00 17.5 C 8.35 g/m*3 17.5 C 0 km/h
352 26-05-2003 10:32:01 17.6 C 8.1 g/m*3 17.6 C 0 km/h
353 26-05-2003 10:42:01 17.7 C 8 g/m*3 17.7 C 0 km/h
354 26-05-2003 10:52:01 17.9 C 7.94 g/m*3 17.9 C 0 km/h
355 26-05-2003 11:02:02 18.1 C 7.73 g/m*3 18.1 C 0 km/h
356 26-05-2003 11:12:02 18.5 C 7.91 g/m*3 18.5 C 0 km/h
357 26-05-2003 11:22:02 19 C 7.99 g/m*3 19 C 0 km/h
358 26-05-2003 11:32:02 19.3 C 7.96 g/m*3 19.3 C 0 km/h
359 26-05-2003 11:42:02 19.3 C 7.8 g/m*3 19.3 C 0 km/h
360 26-05-2003 11:52:02 19.3 C 7.63 g/m*3 19.3 C 0 km/h
361 26-05-2003 12:02:01 18.6 C 7.64 g/m*3 18.6 C 0 km/h
362 26-05-2003 12:12:01 18.8 C 8.05 g/m*3 18.8 C 0 km/h
363 26-05-2003 12:22:01 19.5 C 7.89 g/m*3 19.5 C 0 km/h
364 26-05-2003 12:32:00 20.8 C 8.15 g/m*3 20.8 C 0 km/h
365 26-05-2003 12:42:00 21.7 C 7.63 g/m*3 21.7 C 0 km/h
366 26-05-2003 12:52:00 22 C 7.18 g/m*3 22 C 0 km/h
367 26-05-2003 13:02:01 22.5 C 7.59 g/m*3 22.5 C 0 km/h
368 26-05-2003 13:12:01 23.2 C 6.86 g/m*3 23.2 C 0 km/h
369 26-05-2003 13:22:01 21.8 C 7.67 g/m*3 21.8 C 0 km/h
370 26-05-2003 13:32:01 21.5 C 6.98 g/m*3 21.5 C 0 km/h
371 26-05-2003 13:42:01 22.5 C 6.79 g/m*3 22.5 C 0 km/h
372 26-05-2003 13:52:01 23 C 6.78 g/m*3 23 C 0 km/h
373 26-05-2003 14:02:01 22.7 C 7.07 g/m*3 22.7 C 0 km/h
374 26-05-2003 14:12:01 22 C 6.79 g/m*3 22 C 0 km/h
375 26-05-2003 14:22:01 22.7 C 7.48 g/m*3 22.7 C 0 km/h
Sensor: Nr:Datum:Temp:Abs-Feuchte:Windchill:Wind:
Aussen-T/F 376 26-05-2003 14:32:01 22.8 C 7.11 g/m*3 22.8 C 0 km/h
377 26-05-2003 14:52:01 23.4 C 6.94 g/m*3 23.4 C 0 km/h
378 26-05-2003 15:02:01 23.3 C 6.69 g/m*3 23.3 C 0 km/h
379 26-05-2003 15:12:01 23.3 C 6.9 g/m*3 23.3 C 0 km/h
380 26-05-2003 15:22:01 23.4 C 6.73 g/m*3 23.4 C 0 km/h
381 26-05-2003 15:32:02 23.3 C 6.69 g/m*3 23.3 C 0 km/h
382 26-05-2003 15:42:02 23.9 C 6.92 g/m*3 23.9 C 0 km/h
383 26-05-2003 15:52:02 24.5 C 6.94 g/m*3 24.5 C 0 km/h
384 26-05-2003 16:02:02 23.7 C 7.06 g/m*3 23.7 C 0 km/h
385 26-05-2003 16:12:02 23.3 C 6.69 g/m*3 23.3 C 0 km/h
386 26-05-2003 16:22:02 23.7 C 6.84 g/m*3 23.7 C 0 km/h
387 26-05-2003 16:32:00 23.5 C 6.77 g/m*3 23.5 C 0 km/h
388 26-05-2003 16:42:00 24 C 7.18 g/m*3 24 C 0 km/h
389 26-05-2003 16:52:00 24.1 C 7 g/m*3 24.1 C 0 km/h
390 26-05-2003 17:02:01 24.1 C 7.22 g/m*3 24.1 C 0 km/h
391 26-05-2003 17:12:01 24.1 C 6.78 g/m*3 24.1 C 0 km/h
392 26-05-2003 17:22:01 25.8 C 7.22 g/m*3 25.8 C 0 km/h
393 26-05-2003 17:32:00 24.7 C 6.11 g/m*3 24.7 C 0 km/h
394 26-05-2003 17:42:00 24.5 C 6.49 g/m*3 24.5 C 0 km/h
395 26-05-2003 17:52:00 25.3 C 6.79 g/m*3 25.3 C 0 km/h
396 26-05-2003 18:02:01 25.1 C 6.71 g/m*3 25.1 C 0 km/h
397 26-05-2003 18:12:01 24.2 C 6.82 g/m*3 24.2 C 0 km/h
398 26-05-2003 18:22:01 24.4 C 6.68 g/m*3 24.4 C 0 km/h
399 26-05-2003 18:32:01 23.4 C 6.73 g/m*3 23.4 C 0 km/h
400 26-05-2003 18:42:01 22.9 C 6.95 g/m*3 22.9 C 0 km/h
Sensor: Nr:Datum:Temp:Abs-Feuchte:Windchill:Wind:
Aussen-T/F 401 26-05-2003 18:52:01 22.6 C 7.03 g/m*3 22.6 C 0 km/h
402 26-05-2003 19:02:02 22.2 C 6.87 g/m*3 22.2 C 0 km/h
403 26-05-2003 19:12:02 22.5 C 7.39 g/m*3 22.5 C 0 km/h
404 26-05-2003 19:22:02 22.5 C 7.39 g/m*3 22.5 C 0 km/h
405 26-05-2003 19:32:01 22.5 C 7.19 g/m*3 22.5 C 0 km/h
406 26-05-2003 19:42:01 22.3 C 7.31 g/m*3 22.3 C 0 km/h
407 26-05-2003 19:52:01 22 C 8.15 g/m*3 22 C 0 km/h
408 26-05-2003 20:02:00 21.7 C 8.58 g/m*3 21.7 C 0 km/h
409 26-05-2003 20:12:00 21.1 C 8.48 g/m*3 21.1 C 0 km/h
410 26-05-2003 20:22:00 20.2 C 8.57 g/m*3 20.2 C 0 km/h
411 26-05-2003 20:33:27 19.7 C 8.66 g/m*3 19.7 C 0 km/h
412 26-05-2003 20:43:27 19.5 C 8.73 g/m*3 19.5 C 0 km/h
413 26-05-2003 20:53:27 19.2 C 8.24 g/m*3 19.2 C 0 km/h
414 26-05-2003 21:03:27 19.1 C 8.2 g/m*3 19.1 C 0 km/h
415 26-05-2003 21:13:27 18.9 C 8.59 g/m*3 18.9 C 0 km/h
416 26-05-2003 21:23:27 18.9 C 8.59 g/m*3 18.9 C 0 km/h
417 26-05-2003 21:33:27 18.7 C 8.49 g/m*3 18.7 C 0 km/h
418 26-05-2003 21:43:27 18.7 C 8.81 g/m*3 18.7 C 0 km/h
419 26-05-2003 21:53:27 18.7 C 9.13 g/m*3 18.7 C 0 km/h
420 26-05-2003 22:03:27 18.5 C 9.02 g/m*3 18.5 C 0 km/h
421 26-05-2003 22:13:27 18.5 C 8.86 g/m*3 18.5 C 0 km/h
422 26-05-2003 22:23:27 18.3 C 8.91 g/m*3 18.3 C 0 km/h
423 26-05-2003 22:33:27 18.3 C 9.22 g/m*3 18.3 C 0 km/h
424 26-05-2003 22:43:27 18.3 C 9.07 g/m*3 18.3 C 0 km/h
425 26-05-2003 22:53:27 18.4 C 9.12 g/m*3 18.4 C 0 km/h
Sensor: Nr:Datum:Temp:Abs-Feuchte:Windchill:Wind:
Aussen-T/F 426 26-05-2003 23:03:27 18.2 C 9.01 g/m*3 18.2 C 0 km/h
427 26-05-2003 23:13:27 18.2 C 9.01 g/m*3 18.2 C 0 km/h
428 26-05-2003 23:23:27 18.1 C 9.12 g/m*3 18.1 C 0 km/h
429 26-05-2003 23:33:27 17.9 C 9.16 g/m*3 17.9 C 0 km/h
430 26-05-2003 23:43:27 17.8 C 9.26 g/m*3 17.8 C 0 km/h
431 26-05-2003 23:53:27 17.7 C 9.35 g/m*3 17.7 C 0 km/h
432 27-05-2003 00:03:27 17.6 C 9.15 g/m*3 17.6 C 0 km/h
433 27-05-2003 00:13:27 17.2 C 9.23 g/m*3 17.2 C 0 km/h
434 27-05-2003 00:23:27 17.4 C 9.34 g/m*3 17.4 C 0 km/h
435 27-05-2003 00:33:27 17.2 C 9.23 g/m*3 17.2 C 0 km/h
436 27-05-2003 00:43:27 17.2 C 9.23 g/m*3 17.2 C 0 km/h
437 27-05-2003 00:53:27 17.1 C 9.32 g/m*3 17.1 C 0 km/h
438 27-05-2003 01:03:27 16.9 C 9.21 g/m*3 16.9 C 0 km/h
439 27-05-2003 01:13:27 16.6 C 9.04 g/m*3 16.6 C 0 km/h
440 27-05-2003 01:23:27 16.4 C 9.07 g/m*3 16.4 C 0 km/h
441 27-05-2003 01:33:27 16.1 C 9.05 g/m*3 16.1 C 0 km/h
442 27-05-2003 01:43:27 16.3 C 9.3 g/m*3 16.3 C 0 km/h
443 27-05-2003 01:53:27 16.5 C 9.41 g/m*3 16.5 C 0 km/h
444 27-05-2003 02:03:27 16.5 C 9.27 g/m*3 16.5 C 0 km/h
445 27-05-2003 02:13:27 16.2 C 9.1 g/m*3 16.2 C 0 km/h
446 27-05-2003 02:23:27 16.1 C 9.32 g/m*3 16.1 C 0 km/h
447 27-05-2003 02:33:27 16 C 9.13 g/m*3 16 C 0 km/h
448 27-05-2003 02:43:27 16 C 9.13 g/m*3 16 C 0 km/h
449 27-05-2003 02:53:27 16 C 9.26 g/m*3 16 C 0 km/h
450 27-05-2003 03:03:27 15.8 C 9.15 g/m*3 15.8 C 0 km/h
Sensor: Nr:Datum:Temp:Abs-Feuchte:Windchill:Wind:
Aussen-T/F 451 27-05-2003 03:13:27 15.8 C 9.29 g/m*3 15.8 C 0 km/h
452 27-05-2003 03:23:27 15.8 C 9.42 g/m*3 15.8 C 0 km/h
453 27-05-2003 03:33:27 15.7 C 9.37 g/m*3 15.7 C 0 km/h
454 27-05-2003 03:43:27 15.6 C 9.31 g/m*3 15.6 C 0 km/h
455 27-05-2003 03:53:27 15.8 C 9.42 g/m*3 15.8 C 0 km/h
456 27-05-2003 04:03:27 15.7 C 9.37 g/m*3 15.7 C 0 km/h
457 27-05-2003 04:13:27 15.6 C 9.18 g/m*3 15.6 C 0 km/h
458 27-05-2003 04:23:27 15.4 C 9.07 g/m*3 15.4 C 0 km/h
459 27-05-2003 04:33:27 15.4 C 9.2 g/m*3 15.4 C 0 km/h
460 27-05-2003 04:43:27 15.2 C 9.22 g/m*3 15.2 C 0 km/h
461 27-05-2003 04:53:27 15.1 C 9.16 g/m*3 15.1 C 0 km/h
462 27-05-2003 05:03:27 15.1 C 9.16 g/m*3 15.1 C 0 km/h
463 27-05-2003 05:13:27 14.9 C 9.3 g/m*3 14.9 C 0 km/h
464 27-05-2003 05:23:27 14.7 C 9.19 g/m*3 14.7 C 0 km/h
465 27-05-2003 05:33:27 14.4 C 9.15 g/m*3 14.4 C 0 km/h
466 27-05-2003 05:43:27 14.2 C 9.04 g/m*3 14.2 C 0 km/h
467 27-05-2003 05:53:27 14 C 8.93 g/m*3 14 C 0 km/h
468 27-05-2003 06:03:27 14 C 9.05 g/m*3 14 C 0 km/h
469 27-05-2003 06:13:27 14.1 C 9.1 g/m*3 14.1 C 0 km/h
470 27-05-2003 06:23:27 14.1 C 9.22 g/m*3 14.1 C 0 km/h
471 27-05-2003 06:33:27 14.3 C 9.21 g/m*3 14.3 C 0 km/h
472 27-05-2003 06:43:27 14.5 C 9.2 g/m*3 14.5 C 0 km/h
473 27-05-2003 06:53:27 14.8 C 9.37 g/m*3 14.8 C 0 km/h
474 27-05-2003 07:03:27 15.2 C 9.48 g/m*3 15.2 C 0 km/h
475 27-05-2003 07:13:27 15.4 C 9.59 g/m*3 15.4 C 0 km/h
Sensor: Nr:Datum:Temp:Abs-Feuchte:Windchill:Wind:
Aussen-T/F 476 27-05-2003 07:23:27 15.4 C 9.59 g/m*3 15.4 C 0 km/h
477 27-05-2003 07:33:27 15.4 C 9.33 g/m*3 15.4 C 0 km/h
478 27-05-2003 07:43:00 15.5 C 9.39 g/m*3 15.5 C 0 km/h
479 27-05-2003 07:53:00 15.6 C 9.44 g/m*3 15.6 C 0 km/h
480 27-05-2003 08:03:00 15.6 C 9.31 g/m*3 15.6 C 0 km/h
481 27-05-2003 08:13:00 15.9 C 9.75 g/m*3 15.9 C 0 km/h
482 27-05-2003 08:23:00 16 C 9.26 g/m*3 16 C 0 km/h
483 27-05-2003 08:33:01 16.1 C 9.32 g/m*3 16.1 C 0 km/h
484 27-05-2003 08:43:01 16.6 C 9.61 g/m*3 16.6 C 0 km/h
485 27-05-2003 08:53:01 16.6 C 9.04 g/m*3 16.6 C 0 km/h
486 27-05-2003 09:03:01 17 C 9.12 g/m*3 17 C 0 km/h
487 27-05-2003 09:13:01 17.2 C 9.08 g/m*3 17.2 C 0 km/h
488 27-05-2003 09:23:01 17.4 C 9.48 g/m*3 17.4 C 0 km/h
489 27-05-2003 09:33:00 18 C 9.37 g/m*3 18 C 0 km/h
490 27-05-2003 09:43:00 18.3 C 9.69 g/m*3 18.3 C 0 km/h
491 27-05-2003 09:53:00 18.6 C 9.23 g/m*3 18.6 C 0 km/h
492 27-05-2003 10:03:03 19 C 9.29 g/m*3 19 C 0 km/h
493 27-05-2003 10:13:03 19.3 C 8.96 g/m*3 19.3 C 0 km/h
494 27-05-2003 10:23:03 20 C 8.99 g/m*3 20 C 0 km/h
495 27-05-2003 10:33:01 20.6 C 9.13 g/m*3 20.6 C 0 km/h
496 27-05-2003 10:43:01 21.2 C 9.08 g/m*3 21.2 C 0 km/h
497 27-05-2003 10:53:01 22 C 8.73 g/m*3 22 C 0 km/h
498 27-05-2003 11:03:02 21.9 C 8.68 g/m*3 21.9 C 0 km/h
499 27-05-2003 11:13:02 22 C 8.93 g/m*3 22 C 0 km/h
500 27-05-2003 11:23:02 22.8 C 9.14 g/m*3 22.8 C 0 km/h
Sensor: Nr:Datum:Temp:Abs-Feuchte:Windchill:Wind:
Aussen-T/F 501 27-05-2003 11:33:02 23 C 9.04 g/m*3 23 C 0 km/h
502 27-05-2003 11:43:02 23.6 C 8.93 g/m*3 23.6 C 0 km/h
503 27-05-2003 11:53:02 23.4 C 8.83 g/m*3 23.4 C 0 km/h
504 27-05-2003 12:03:02 23 C 8.22 g/m*3 23 C 0 km/h
505 27-05-2003 12:13:02 23.4 C 8.62 g/m*3 23.4 C 0 km/h
506 27-05-2003 12:23:02 23.6 C 8.51 g/m*3 23.6 C 0 km/h
507 27-05-2003 12:33:01 24.7 C 8.6 g/m*3 24.7 C 0 km/h
508 27-05-2003 12:43:01 23.6 C 8.29 g/m*3 23.6 C 0 km/h
509 27-05-2003 12:53:01 24.4 C 8.46 g/m*3 24.4 C 0 km/h
510 27-05-2003 13:03:02 24.1 C 8.97 g/m*3 24.1 C 0 km/h
511 27-05-2003 13:13:02 24.6 C 8.55 g/m*3 24.6 C 0 km/h
512 27-05-2003 13:23:02 23.7 C 8.56 g/m*3 23.7 C 0 km/h
513 27-05-2003 13:33:01 23.1 C 8.68 g/m*3 23.1 C 0 km/h
514 27-05-2003 13:43:01 23.2 C 8.73 g/m*3 23.2 C 0 km/h
515 27-05-2003 13:53:01 22.9 C 9.2 g/m*3 22.9 C 0 km/h
516 27-05-2003 14:03:02 23.4 C 9.04 g/m*3 23.4 C 0 km/h
517 27-05-2003 14:13:02 24.5 C 8.5 g/m*3 24.5 C 0 km/h
518 27-05-2003 14:23:02 24.6 C 8.33 g/m*3 24.6 C 0 km/h
519 27-05-2003 14:33:00 24.6 C 8.55 g/m*3 24.6 C 0 km/h
520 27-05-2003 14:43:00 25.5 C 8.29 g/m*3 25.5 C 0 km/h
521 27-05-2003 14:53:00 25.7 C 8.38 g/m*3 25.7 C 0 km/h
522 27-05-2003 15:03:01 26 C 8.52 g/m*3 26 C 0 km/h
523 27-05-2003 15:13:01 25.7 C 8.62 g/m*3 25.7 C 0 km/h
524 27-05-2003 15:23:01 25.7 C 8.62 g/m*3 25.7 C 0 km/h
525 27-05-2003 15:33:00 24.8 C 8.88 g/m*3 24.8 C 0 km/h
Sensor: Nr:Datum:Temp:Abs-Feuchte:Windchill:Wind:
Aussen-T/F 526 27-05-2003 15:43:00 24.2 C 9.02 g/m*3 24.2 C 0 km/h
527 27-05-2003 15:53:00 23.7 C 8.98 g/m*3 23.7 C 0 km/h
528 27-05-2003 16:03:01 23.4 C 8.83 g/m*3 23.4 C 0 km/h
529 27-05-2003 16:13:01 22.9 C 8.99 g/m*3 22.9 C 0 km/h
530 27-05-2003 16:23:01 22.9 C 8.99 g/m*3 22.9 C 0 km/h
531 27-05-2003 16:33:01 22.8 C 9.14 g/m*3 22.8 C 0 km/h
532 27-05-2003 16:43:01 22.7 C 9.09 g/m*3 22.7 C 0 km/h
533 27-05-2003 16:53:01 22.5 C 9.19 g/m*3 22.5 C 0 km/h
534 27-05-2003 17:03:02 22.4 C 9.33 g/m*3 22.4 C 0 km/h
535 27-05-2003 17:13:02 22.3 C 9.08 g/m*3 22.3 C 0 km/h
536 27-05-2003 17:23:02 22.5 C 9.39 g/m*3 22.5 C 0 km/h
537 27-05-2003 17:33:01 22.6 C 9.24 g/m*3 22.6 C 0 km/h
538 27-05-2003 17:43:01 22.8 C 9.35 g/m*3 22.8 C 0 km/h
539 27-05-2003 17:53:01 23 C 9.25 g/m*3 23 C 0 km/h
540 27-05-2003 18:03:02 22.9 C 9.61 g/m*3 22.9 C 0 km/h
541 27-05-2003 18:13:02 22.4 C 9.53 g/m*3 22.4 C 0 km/h
542 27-05-2003 18:23:02 22.2 C 9.42 g/m*3 22.2 C 0 km/h
543 27-05-2003 18:33:02 22 C 9.12 g/m*3 22 C 0 km/h
544 27-05-2003 18:43:02 22 C 9.51 g/m*3 22 C 0 km/h
545 27-05-2003 18:53:02 21.8 C 9.59 g/m*3 21.8 C 0 km/h
546 27-05-2003 19:03:00 21.7 C 9.54 g/m*3 21.7 C 0 km/h
547 27-05-2003 19:13:00 21.6 C 9.48 g/m*3 21.6 C 0 km/h
548 27-05-2003 19:23:00 21.4 C 9.56 g/m*3 21.4 C 0 km/h
549 27-05-2003 19:33:00 21.3 C 9.69 g/m*3 21.3 C 0 km/h
550 27-05-2003 19:43:00 21.1 C 10.13 g/m*3 21.1 C 0 km/h
Sensor: Nr:Datum:Temp:Abs-Feuchte:Windchill:Wind:
Aussen-T/F 551 27-05-2003 19:53:00 21 C 10.26 g/m*3 21 C 0 km/h
552 27-05-2003 20:03:00 20.7 C 10.26 g/m*3 20.7 C 0 km/h
553 27-05-2003 20:13:00 20.6 C 10.2 g/m*3 20.6 C 0 km/h
554 27-05-2003 20:23:00 20.4 C 9.91 g/m*3 20.4 C 0 km/h
555 27-05-2003 20:33:01 20.2 C 9.97 g/m*3 20.2 C 0 km/h
556 27-05-2003 20:43:01 20 C 10.02 g/m*3 20 C 0 km/h
557 27-05-2003 20:53:01 20 C 10.2 g/m*3 20 C 0 km/h
558 27-05-2003 21:03:01 19.7 C 10.19 g/m*3 19.7 C 0 km/h
559 27-05-2003 21:13:01 19.5 C 10.41 g/m*3 19.5 C 0 km/h
560 27-05-2003 21:23:01 19.3 C 10.28 g/m*3 19.3 C 0 km/h
561 27-05-2003 21:34:01 18.9 C 10.37 g/m*3 18.9 C 0 km/h
562 27-05-2003 21:44:01 18.7 C 10.25 g/m*3 18.7 C 0 km/h
563 27-05-2003 21:54:01 18.7 C 10.41 g/m*3 18.7 C 0 km/h
564 27-05-2003 22:04:01 18.6 C 10.5 g/m*3 18.6 C 0 km/h
565 27-05-2003 22:14:01 18.5 C 10.28 g/m*3 18.5 C 0 km/h
566 27-05-2003 22:24:01 18.5 C 10.28 g/m*3 18.5 C 0 km/h
567 27-05-2003 22:34:01 18.5 C 10.44 g/m*3 18.5 C 0 km/h
568 27-05-2003 22:44:01 18.3 C 10.32 g/m*3 18.3 C 0 km/h
569 27-05-2003 22:54:01 18.2 C 10.26 g/m*3 18.2 C 0 km/h
570 27-05-2003 23:04:01 18.1 C 10.04 g/m*3 18.1 C 0 km/h
571 27-05-2003 23:14:01 18.1 C 10.04 g/m*3 18.1 C 0 km/h
572 27-05-2003 23:24:01 18.1 C 9.89 g/m*3 18.1 C 0 km/h
573 27-05-2003 23:34:01 17.9 C 9.77 g/m*3 17.9 C 0 km/h
574 27-05-2003 23:44:01 17.7 C 9.81 g/m*3 17.7 C 0 km/h
575 27-05-2003 23:54:01 17.6 C 10.05 g/m*3 17.6 C 0 km/h
Sensor: Nr:Datum:Temp:Abs-Feuchte:Windchill:Wind:
Aussen-T/F 576 28-05-2003 00:04:01 17.5 C 9.99 g/m*3 17.5 C 0 km/h
577 28-05-2003 00:14:01 17.2 C 9.81 g/m*3 17.2 C 0 km/h
578 28-05-2003 00:24:01 17.2 C 9.67 g/m*3 17.2 C 0 km/h
579 28-05-2003 00:34:01 17.1 C 9.61 g/m*3 17.1 C 0 km/h
580 28-05-2003 00:44:01 17.1 C 9.46 g/m*3 17.1 C 0 km/h
581 28-05-2003 00:54:01 16.8 C 9.58 g/m*3 16.8 C 0 km/h
582 28-05-2003 01:04:01 16.7 C 9.52 g/m*3 16.7 C 0 km/h
583 28-05-2003 01:14:01 16.5 C 9.41 g/m*3 16.5 C 0 km/h
584 28-05-2003 01:24:01 16.3 C 9.43 g/m*3 16.3 C 0 km/h
585 28-05-2003 01:34:01 16 C 9.26 g/m*3 16 C 0 km/h
586 28-05-2003 01:44:01 15.7 C 9.23 g/m*3 15.7 C 0 km/h
587 28-05-2003 01:54:01 15.4 C 9.2 g/m*3 15.4 C 0 km/h
588 28-05-2003 02:04:01 15.2 C 9.09 g/m*3 15.2 C 0 km/h
589 28-05-2003 02:14:01 15 C 9.1 g/m*3 15 C 0 km/h
590 28-05-2003 02:24:01 14.9 C 9.18 g/m*3 14.9 C 0 km/h
591 28-05-2003 02:34:01 14.7 C 9.07 g/m*3 14.7 C 0 km/h
592 28-05-2003 02:44:01 14.6 C 9.13 g/m*3 14.6 C 0 km/h
593 28-05-2003 02:54:01 14.6 C 9.13 g/m*3 14.6 C 0 km/h
594 28-05-2003 03:04:01 14.5 C 9.08 g/m*3 14.5 C 0 km/h
595 28-05-2003 03:14:01 14.3 C 9.21 g/m*3 14.3 C 0 km/h
596 28-05-2003 03:24:01 14 C 9.05 g/m*3 14 C 0 km/h
597 28-05-2003 03:34:01 13.9 C 9.11 g/m*3 13.9 C 0 km/h
598 28-05-2003 03:44:01 13.6 C 9.18 g/m*3 13.6 C 0 km/h
599 28-05-2003 03:54:01 13.5 C 9.01 g/m*3 13.5 C 0 km/h
600 28-05-2003 04:04:01 13.3 C 9.01 g/m*3 13.3 C 0 km/h
Sensor: Nr:Datum:Temp:Abs-Feuchte:Windchill:Wind:
Aussen-T/F 601 28-05-2003 04:14:01 13.2 C 9.07 g/m*3 13.2 C 0 km/h
602 28-05-2003 04:24:01 13.1 C 9.13 g/m*3 13.1 C 0 km/h
603 28-05-2003 04:34:01 13 C 9.07 g/m*3 13 C 0 km/h
604 28-05-2003 04:44:01 13 C 9.19 g/m*3 13 C 0 km/h
605 28-05-2003 04:54:01 12.9 C 9.24 g/m*3 12.9 C 0 km/h
606 28-05-2003 05:04:01 12.7 C 9.13 g/m*3 12.7 C 0 km/h
607 28-05-2003 05:14:01 12.7 C 9.24 g/m*3 12.7 C 0 km/h
608 28-05-2003 05:24:01 12.7 C 9.35 g/m*3 12.7 C 0 km/h
609 28-05-2003 05:34:01 12.5 C 9.24 g/m*3 12.5 C 0 km/h
610 28-05-2003 05:44:01 12.5 C 9.13 g/m*3 12.5 C 0 km/h
611 28-05-2003 05:54:01 12.5 C 9.13 g/m*3 12.5 C 0 km/h
612 28-05-2003 06:04:01 12.6 C 9.29 g/m*3 12.6 C 0 km/h
613 28-05-2003 06:14:01 12.7 C 9.35 g/m*3 12.7 C 0 km/h
614 28-05-2003 06:24:01 12.7 C 9.24 g/m*3 12.7 C 0 km/h
615 28-05-2003 06:34:01 12.7 C 9.24 g/m*3 12.7 C 0 km/h
616 28-05-2003 06:44:01 12.7 C 9.35 g/m*3 12.7 C 0 km/h
617 28-05-2003 06:54:01 13.1 C 9.47 g/m*3 13.1 C 0 km/h
618 28-05-2003 07:04:01 13.2 C 9.42 g/m*3 13.2 C 0 km/h
619 28-05-2003 07:14:01 13.4 C 9.42 g/m*3 13.4 C 0 km/h
620 28-05-2003 07:24:01 13.7 C 9.59 g/m*3 13.7 C 0 km/h
621 28-05-2003 07:34:01 13.8 C 9.41 g/m*3 13.8 C 0 km/h
622 28-05-2003 07:44:01 14 C 9.53 g/m*3 14 C 0 km/h
623 28-05-2003 07:54:01 14.3 C 9.58 g/m*3 14.3 C 0 km/h
624 28-05-2003 08:04:01 14.3 C 9.46 g/m*3 14.3 C 0 km/h
625 28-05-2003 08:14:01 14.3 C 9.58 g/m*3 14.3 C 0 km/h
Sensor: Nr:Datum:Temp:Abs-Feuchte:Windchill:Wind:
Aussen-T/F 626 28-05-2003 08:24:01 14.6 C 9.64 g/m*3 14.6 C 0 km/h
627 28-05-2003 08:34:01 14.8 C 9.63 g/m*3 14.8 C 0 km/h
628 28-05-2003 08:44:01 15 C 9.49 g/m*3 15 C 0 km/h
629 28-05-2003 08:54:01 15.2 C 9.48 g/m*3 15.2 C 0 km/h
630 28-05-2003 09:04:01 15.5 C 9.78 g/m*3 15.5 C 0 km/h
631 28-05-2003 09:14:01 15.6 C 9.84 g/m*3 15.6 C 0 km/h
632 28-05-2003 09:34:01 16.2 C 9.79 g/m*3 16.2 C 0 km/h
633 28-05-2003 09:44:01 16.6 C 9.89 g/m*3 16.6 C 0 km/h
634 28-05-2003 09:54:01 17.4 C 9.93 g/m*3 17.4 C 0 km/h
635 28-05-2003 10:04:01 17.8 C 9.87 g/m*3 17.8 C 0 km/h
636 28-05-2003 10:14:01 19 C 9.78 g/m*3 19 C 0 km/h
637 28-05-2003 10:24:01 19.6 C 9.79 g/m*3 19.6 C 0 km/h
638 28-05-2003 10:34:02 20 C 9.85 g/m*3 20 C 0 km/h
639 28-05-2003 10:44:02 20.4 C 9.73 g/m*3 20.4 C 0 km/h
640 28-05-2003 10:54:02 21.3 C 9.51 g/m*3 21.3 C 0 km/h
641 28-05-2003 11:04:02 21.6 C 9.86 g/m*3 21.6 C 0 km/h
642 28-05-2003 11:14:02 21.9 C 9.84 g/m*3 21.9 C 0 km/h
643 28-05-2003 11:24:02 22.4 C 9.93 g/m*3 22.4 C 0 km/h
644 28-05-2003 11:34:00 22.9 C 10.01 g/m*3 22.9 C 0 km/h
645 28-05-2003 11:44:00 23.1 C 9.72 g/m*3 23.1 C 0 km/h
646 28-05-2003 11:54:00 23.8 C 9.9 g/m*3 23.8 C 0 km/h
647 28-05-2003 12:04:01 24.2 C 9.24 g/m*3 24.2 C 0 km/h
648 28-05-2003 12:14:01 24.4 C 9.35 g/m*3 24.4 C 0 km/h
649 28-05-2003 12:24:01 24.7 C 9.51 g/m*3 24.7 C 0 km/h
650 28-05-2003 12:34:01 24.7 C 9.73 g/m*3 24.7 C 0 km/h
Sensor: Nr:Datum:Temp:Abs-Feuchte:Windchill:Wind:
Aussen-T/F 651 28-05-2003 12:44:01 25.6 C 8.81 g/m*3 25.6 C 0 km/h
652 28-05-2003 12:54:01 26.3 C 8.91 g/m*3 26.3 C 0 km/h
653 28-05-2003 13:04:01 26.2 C 9.35 g/m*3 26.2 C 0 km/h
654 28-05-2003 13:14:01 28 C 8.7 g/m*3 28 C 0 km/h
655 28-05-2003 13:24:01 27.4 C 8.68 g/m*3 27.4 C 0 km/h
656 28-05-2003 13:34:01 27.9 C 9.47 g/m*3 27.9 C 0 km/h
657 28-05-2003 13:44:01 27.5 C 9 g/m*3 27.5 C 0 km/h
658 28-05-2003 13:54:01 26.5 C 9.01 g/m*3 26.5 C 0 km/h
659 28-05-2003 14:04:02 26.1 C 9.3 g/m*3 26.1 C 0 km/h
660 28-05-2003 14:14:02 26.1 C 9.3 g/m*3 26.1 C 0 km/h
661 28-05-2003 14:24:02 26.6 C 9.06 g/m*3 26.6 C 0 km/h
662 28-05-2003 14:34:02 27.3 C 9.42 g/m*3 27.3 C 0 km/h
663 28-05-2003 14:44:02 27.3 C 9.42 g/m*3 27.3 C 0 km/h
664 28-05-2003 14:54:02 27.4 C 9.21 g/m*3 27.4 C 0 km/h
665 28-05-2003 15:04:01 26.7 C 9.37 g/m*3 26.7 C 0 km/h
666 28-05-2003 15:14:01 27.5 C 9.52 g/m*3 27.5 C 0 km/h
667 28-05-2003 15:24:01 27.5 C 9.52 g/m*3 27.5 C 0 km/h
668 28-05-2003 15:34:01 26.9 C 9.21 g/m*3 26.9 C 0 km/h
669 28-05-2003 15:44:01 26.9 C 9.47 g/m*3 26.9 C 0 km/h
670 28-05-2003 15:54:01 27.5 C 9.26 g/m*3 27.5 C 0 km/h
671 28-05-2003 16:04:01 27 C 9.52 g/m*3 27 C 0 km/h
672 28-05-2003 16:14:01 26.9 C 9.47 g/m*3 26.9 C 0 km/h
673 28-05-2003 16:24:01 27.4 C 9.21 g/m*3 27.4 C 0 km/h
674 28-05-2003 16:34:00 27.5 C 9.26 g/m*3 27.5 C 0 km/h
675 28-05-2003 16:44:00 27.4 C 9.21 g/m*3 27.4 C 0 km/h
Sensor: Nr:Datum:Temp:Abs-Feuchte:Windchill:Wind:
Aussen-T/F 676 28-05-2003 16:54:00 27.7 C 9.09 g/m*3 27.7 C 0 km/h
677 28-05-2003 17:04:01 29.2 C 9 g/m*3 29.2 C 0 km/h
678 28-05-2003 17:14:01 29.6 C 9.2 g/m*3 29.6 C 0 km/h
679 28-05-2003 17:24:01 28.8 C 9.09 g/m*3 28.8 C 0 km/h
680 28-05-2003 17:34:01 29.1 C 8.95 g/m*3 29.1 C 0 km/h
681 28-05-2003 17:44:01 29.4 C 9.1 g/m*3 29.4 C 0 km/h
682 28-05-2003 17:54:01 27.3 C 8.9 g/m*3 27.3 C 0 km/h
683 28-05-2003 18:04:01 26.9 C 10.24 g/m*3 26.9 C 0 km/h
684 28-05-2003 18:14:01 28.2 C 9.07 g/m*3 28.2 C 0 km/h
685 28-05-2003 18:24:01 27.6 C 9.58 g/m*3 27.6 C 0 km/h
686 28-05-2003 18:34:01 28.3 C 9.68 g/m*3 28.3 C 0 km/h
687 28-05-2003 18:44:01 28.9 C 8.86 g/m*3 28.9 C 0 km/h
688 28-05-2003 18:54:01 28.9 C 8.86 g/m*3 28.9 C 0 km/h
689 28-05-2003 19:04:02 27.8 C 9.15 g/m*3 27.8 C 0 km/h
690 28-05-2003 19:14:02 26.8 C 9.16 g/m*3 26.8 C 0 km/h
691 28-05-2003 19:24:02 26.9 C 9.21 g/m*3 26.9 C 0 km/h
692 28-05-2003 19:34:01 27 C 9.01 g/m*3 27 C 0 km/h
693 28-05-2003 19:44:01 26.8 C 9.16 g/m*3 26.8 C 0 km/h
694 28-05-2003 19:54:01 26.2 C 9.11 g/m*3 26.2 C 0 km/h
695 28-05-2003 20:04:01 25.2 C 9.54 g/m*3 25.2 C 0 km/h
696 28-05-2003 20:14:01 25.1 C 9.49 g/m*3 25.1 C 0 km/h
697 28-05-2003 20:24:01 25.5 C 9.71 g/m*3 25.5 C 0 km/h
698 28-05-2003 20:34:01 25 C 9.67 g/m*3 25 C 0 km/h
699 28-05-2003 20:44:01 24.4 C 9.57 g/m*3 24.4 C 0 km/h
700 28-05-2003 20:54:01 24 C 9.57 g/m*3 24 C 0 km/h
Sensor: Nr:Datum:Temp:Abs-Feuchte:Windchill:Wind:
Aussen-T/F 701 28-05-2003 21:04:01 23.7 C 9.63 g/m*3 23.7 C 0 km/h
702 28-05-2003 21:14:01 23.1 C 9.51 g/m*3 23.1 C 0 km/h
703 28-05-2003 21:24:01 22.8 C 9.75 g/m*3 22.8 C 0 km/h
704 28-05-2003 21:34:01 22.6 C 9.64 g/m*3 22.6 C 0 km/h
705 28-05-2003 21:44:01 22.3 C 9.48 g/m*3 22.3 C 0 km/h
706 28-05-2003 21:54:01 22.2 C 9.62 g/m*3 22.2 C 0 km/h
707 28-05-2003 22:05:01 21.8 C 9.78 g/m*3 21.8 C 0 km/h
708 28-05-2003 22:15:01 21.5 C 9.81 g/m*3 21.5 C 0 km/h
709 28-05-2003 22:25:01 21.3 C 9.88 g/m*3 21.3 C 0 km/h
710 28-05-2003 22:35:01 21 C 9.53 g/m*3 21 C 0 km/h
711 28-05-2003 22:45:01 20.8 C 9.6 g/m*3 20.8 C 0 km/h
712 28-05-2003 22:55:01 20.3 C 9.5 g/m*3 20.3 C 0 km/h
713 28-05-2003 23:05:01 20.1 C 9.04 g/m*3 20.1 C 0 km/h
714 28-05-2003 23:15:01 20.1 C 8.52 g/m*3 20.1 C 0 km/h
715 28-05-2003 23:25:01 19.9 C 8.59 g/m*3 19.9 C 0 km/h
716 28-05-2003 23:35:01 19.9 C 8.59 g/m*3 19.9 C 0 km/h
717 28-05-2003 23:45:01 19.7 C 8.66 g/m*3 19.7 C 0 km/h
718 28-05-2003 23:55:01 19.4 C 8.51 g/m*3 19.4 C 0 km/h
719 29-05-2003 00:05:01 19.3 C 8.46 g/m*3 19.3 C 0 km/h
720 29-05-2003 00:15:01 18.9 C 8.59 g/m*3 18.9 C 0 km/h
721 29-05-2003 00:25:01 18.8 C 8.54 g/m*3 18.8 C 0 km/h
722 29-05-2003 00:35:01 18.6 C 8.28 g/m*3 18.6 C 0 km/h
723 29-05-2003 00:45:01 18.5 C 8.23 g/m*3 18.5 C 0 km/h
724 29-05-2003 00:55:01 18.5 C 8.23 g/m*3 18.5 C 0 km/h
725 29-05-2003 01:05:01 18.5 C 8.39 g/m*3 18.5 C 0 km/h
Sensor: Nr:Datum:Temp:Abs-Feuchte:Windchill:Wind:
Aussen-T/F 726 29-05-2003 01:15:01 18.3 C 8.13 g/m*3 18.3 C 0 km/h
727 29-05-2003 01:25:01 18.3 C 8.29 g/m*3 18.3 C 0 km/h
728 29-05-2003 01:35:01 18.1 C 8.34 g/m*3 18.1 C 0 km/h
729 29-05-2003 01:45:01 17.8 C 8.5 g/m*3 17.8 C 0 km/h
730 29-05-2003 01:55:01 17.5 C 8.35 g/m*3 17.5 C 0 km/h
731 29-05-2003 02:05:01 17 C 8.39 g/m*3 17 C 0 km/h
732 29-05-2003 02:15:01 16.9 C 8.63 g/m*3 16.9 C 0 km/h
733 29-05-2003 02:25:01 16.6 C 8.62 g/m*3 16.6 C 0 km/h
734 29-05-2003 02:35:01 16.4 C 8.51 g/m*3 16.4 C 0 km/h
735 29-05-2003 02:45:01 16.2 C 8.41 g/m*3 16.2 C 0 km/h
736 29-05-2003 02:55:01 16 C 8.45 g/m*3 16 C 0 km/h
737 29-05-2003 03:05:01 16 C 8.45 g/m*3 16 C 0 km/h
738 29-05-2003 03:15:01 15.8 C 8.48 g/m*3 15.8 C 0 km/h
739 29-05-2003 03:25:01 15.7 C 8.56 g/m*3 15.7 C 0 km/h
740 29-05-2003 03:35:01 15.6 C 8.51 g/m*3 15.6 C 0 km/h
741 29-05-2003 03:45:01 15.5 C 8.72 g/m*3 15.5 C 0 km/h
742 29-05-2003 03:55:01 15.4 C 8.67 g/m*3 15.4 C 0 km/h
743 29-05-2003 04:05:01 15.2 C 8.7 g/m*3 15.2 C 0 km/h
744 29-05-2003 04:15:01 15 C 8.72 g/m*3 15 C 0 km/h
745 29-05-2003 04:25:01 14.9 C 8.79 g/m*3 14.9 C 0 km/h
746 29-05-2003 04:35:01 14.7 C 8.81 g/m*3 14.7 C 0 km/h
747 29-05-2003 04:45:01 14.7 C 8.81 g/m*3 14.7 C 0 km/h
748 29-05-2003 04:55:01 14.5 C 8.83 g/m*3 14.5 C 0 km/h
749 29-05-2003 05:05:01 14.5 C 8.83 g/m*3 14.5 C 0 km/h
750 29-05-2003 05:15:01 14.7 C 8.94 g/m*3 14.7 C 0 km/h
Sensor: Nr:Datum:Temp:Abs-Feuchte:Windchill:Wind:
Aussen-T/F 751 29-05-2003 05:25:01 14.7 C 8.94 g/m*3 14.7 C 0 km/h
752 29-05-2003 05:35:01 14.9 C 8.92 g/m*3 14.9 C 0 km/h
753 29-05-2003 05:45:01 14.8 C 8.99 g/m*3 14.8 C 0 km/h
754 29-05-2003 05:55:01 14.7 C 9.07 g/m*3 14.7 C 0 km/h
755 29-05-2003 06:05:01 14.5 C 8.95 g/m*3 14.5 C 0 km/h
756 29-05-2003 06:15:01 14.5 C 9.08 g/m*3 14.5 C 0 km/h
757 29-05-2003 06:25:01 14.4 C 9.02 g/m*3 14.4 C 0 km/h
758 29-05-2003 06:35:01 14.4 C 9.15 g/m*3 14.4 C 0 km/h
759 29-05-2003 06:45:01 14.4 C 9.15 g/m*3 14.4 C 0 km/h
760 29-05-2003 06:55:01 14.3 C 9.09 g/m*3 14.3 C 0 km/h
761 29-05-2003 07:05:01 14.5 C 9.33 g/m*3 14.5 C 0 km/h
762 29-05-2003 07:15:01 14.6 C 9.26 g/m*3 14.6 C 0 km/h
763 29-05-2003 07:25:01 14.6 C 9.26 g/m*3 14.6 C 0 km/h
764 29-05-2003 07:35:01 14.7 C 9.19 g/m*3 14.7 C 0 km/h
765 29-05-2003 07:45:01 14.8 C 9.25 g/m*3 14.8 C 0 km/h
766 29-05-2003 07:55:01 15.2 C 9.48 g/m*3 15.2 C 0 km/h
767 29-05-2003 08:05:01 15.4 C 9.46 g/m*3 15.4 C 0 km/h
768 29-05-2003 08:15:01 15.7 C 9.63 g/m*3 15.7 C 0 km/h
769 29-05-2003 08:25:01 16 C 9.4 g/m*3 16 C 0 km/h
770 29-05-2003 08:35:00 16.2 C 9.52 g/m*3 16.2 C 0 km/h
771 29-05-2003 08:45:00 16.6 C 9.61 g/m*3 16.6 C 0 km/h
772 29-05-2003 08:55:00 17 C 9.69 g/m*3 17 C 0 km/h
773 29-05-2003 09:05:00 17.5 C 9.69 g/m*3 17.5 C 0 km/h
774 29-05-2003 09:15:00 17.9 C 9.92 g/m*3 17.9 C 0 km/h
775 29-05-2003 09:25:00 18.3 C 9.85 g/m*3 18.3 C 0 km/h
Sensor: Nr:Datum:Temp:Abs-Feuchte:Windchill:Wind:
Aussen-T/F 776 29-05-2003 09:35:01 18.9 C 10.21 g/m*3 18.9 C 0 km/h
777 29-05-2003 09:45:01 19.3 C 9.79 g/m*3 19.3 C 0 km/h
778 29-05-2003 09:55:01 19.7 C 9.85 g/m*3 19.7 C 0 km/h
779 29-05-2003 10:05:01 20.4 C 9.73 g/m*3 20.4 C 0 km/h
780 29-05-2003 10:15:01 20.7 C 9.54 g/m*3 20.7 C 0 km/h
781 29-05-2003 10:25:01 21.4 C 10.31 g/m*3 21.4 C 0 km/h
782 29-05-2003 10:35:02 21.8 C 10.17 g/m*3 21.8 C 0 km/h
783 29-05-2003 10:45:02 22.1 C 9.76 g/m*3 22.1 C 0 km/h
784 29-05-2003 10:55:02 22.8 C 9.75 g/m*3 22.8 C 0 km/h
785 29-05-2003 11:05:02 23.3 C 9.62 g/m*3 23.3 C 0 km/h
786 29-05-2003 11:15:02 23.4 C 9.25 g/m*3 23.4 C 0 km/h
787 29-05-2003 11:25:02 24 C 9.14 g/m*3 24 C 0 km/h
788 29-05-2003 11:35:02 23.9 C 8.87 g/m*3 23.9 C 0 km/h
789 29-05-2003 11:45:02 24.6 C 9 g/m*3 24.6 C 0 km/h
790 29-05-2003 11:55:02 25.5 C 9 g/m*3 25.5 C 0 km/h
791 29-05-2003 12:05:01 26.1 C 8.57 g/m*3 26.1 C 0 km/h
792 29-05-2003 12:15:01 26.6 C 7.8 g/m*3 26.6 C 0 km/h
793 29-05-2003 12:25:01 27 C 7.98 g/m*3 27 C 0 km/h
794 29-05-2003 12:35:01 27.4 C 7.89 g/m*3 27.4 C 0 km/h
795 29-05-2003 12:45:01 27.9 C 8.11 g/m*3 27.9 C 0 km/h
796 29-05-2003 12:55:01 28.3 C 7.74 g/m*3 28.3 C 0 km/h
797 29-05-2003 13:05:02 28 C 7.61 g/m*3 28 C 0 km/h
798 29-05-2003 13:15:02 28.7 C 8.19 g/m*3 28.7 C 0 km/h
799 29-05-2003 13:25:02 29.6 C 8.31 g/m*3 29.6 C 0 km/h
800 29-05-2003 13:35:02 28.9 C 8.57 g/m*3 28.9 C 0 km/h
Sensor: Nr:Datum:Temp:Abs-Feuchte:Windchill:Wind:
Aussen-T/F 801 29-05-2003 13:45:02 29 C 8.62 g/m*3 29 C 0 km/h
802 29-05-2003 13:55:02 28 C 8.16 g/m*3 28 C 0 km/h
803 29-05-2003 14:05:02 28.2 C 9.07 g/m*3 28.2 C 0 km/h
804 29-05-2003 14:15:02 28.9 C 9.43 g/m*3 28.9 C 0 km/h
805 29-05-2003 14:25:02 28.6 C 8.71 g/m*3 28.6 C 0 km/h
806 29-05-2003 14:35:00 29.2 C 9 g/m*3 29.2 C 0 km/h
807 29-05-2003 14:45:00 28.8 C 9.09 g/m*3 28.8 C 0 km/h
808 29-05-2003 14:55:00 29.1 C 9.24 g/m*3 29.1 C 0 km/h
809 29-05-2003 15:05:01 28.4 C 9.17 g/m*3 28.4 C 0 km/h
810 29-05-2003 15:15:01 28.3 C 9.95 g/m*3 28.3 C 0 km/h
811 29-05-2003 15:25:01 27.9 C 10.01 g/m*3 27.9 C 0 km/h
812 29-05-2003 15:35:01 28.4 C 10.56 g/m*3 28.4 C 0 km/h
813 29-05-2003 15:45:01 28.8 C 10.51 g/m*3 28.8 C 0 km/h
814 29-05-2003 15:55:01 29.5 C 9.15 g/m*3 29.5 C 0 km/h
815 29-05-2003 16:05:00 30.6 C 9.4 g/m*3 30.6 C 0 km/h
816 29-05-2003 16:15:00 31 C 8.96 g/m*3 31 C 0 km/h
817 29-05-2003 16:25:00 30.9 C 9.23 g/m*3 30.9 C 0 km/h
818 29-05-2003 16:35:01 31.3 C 9.43 g/m*3 31.3 C 0 km/h
819 29-05-2003 16:45:01 31.1 C 10.94 g/m*3 31.1 C 0 km/h
820 29-05-2003 16:55:01 31.5 C 9.2 g/m*3 31.5 C 0 km/h
821 29-05-2003 17:05:01 32.1 C 8.82 g/m*3 32.1 C 0 km/h
822 29-05-2003 17:15:01 31.9 C 9.07 g/m*3 31.9 C 0 km/h
823 29-05-2003 17:25:01 31.4 C 9.15 g/m*3 31.4 C 0 km/h
824 29-05-2003 17:35:00 31.8 C 9.02 g/m*3 31.8 C 0 km/h
825 29-05-2003 17:45:00 31.8 C 9.02 g/m*3 31.8 C 0 km/h
Sensor: Nr:Datum:Temp:Abs-Feuchte:Windchill:Wind:
Aussen-T/F 826 29-05-2003 17:55:00 31.2 C 9.7 g/m*3 31.2 C 0 km/h
827 29-05-2003 18:05:01 30.8 C 11.08 g/m*3 30.8 C 0 km/h
828 29-05-2003 18:15:01 31.1 C 9.65 g/m*3 31.1 C 0 km/h
829 29-05-2003 18:25:01 31.3 C 9.43 g/m*3 31.3 C 0 km/h
830 29-05-2003 18:35:00 32 C 9.11 g/m*3 32 C 0 km/h
831 29-05-2003 18:45:00 31.9 C 9.4 g/m*3 31.9 C 0 km/h
832 29-05-2003 18:55:00 31.5 C 9.86 g/m*3 31.5 C 0 km/h
833 29-05-2003 19:05:00 30.9 C 9.87 g/m*3 30.9 C 0 km/h
834 29-05-2003 19:15:00 31.1 C 9.97 g/m*3 31.1 C 0 km/h
835 29-05-2003 19:25:00 30.9 C 10.19 g/m*3 30.9 C 0 km/h
836 29-05-2003 19:35:01 30.7 C 10.08 g/m*3 30.7 C 0 km/h
837 29-05-2003 19:45:01 30.4 C 11.47 g/m*3 30.4 C 0 km/h
838 29-05-2003 19:55:01 30.1 C 10.98 g/m*3 30.1 C 0 km/h
839 29-05-2003 20:05:00 29.8 C 10.8 g/m*3 29.8 C 0 km/h
840 29-05-2003 20:15:00 29.1 C 10.97 g/m*3 29.1 C 0 km/h
841 29-05-2003 20:25:00 28.6 C 10.96 g/m*3 28.6 C 0 km/h
842 29-05-2003 20:35:01 28 C 11.15 g/m*3 28 C 0 km/h
843 29-05-2003 20:45:01 27.4 C 11.05 g/m*3 27.4 C 0 km/h
844 29-05-2003 20:55:01 26.9 C 11.26 g/m*3 26.9 C 0 km/h
845 29-05-2003 21:05:01 26.2 C 11.08 g/m*3 26.2 C 0 km/h
846 29-05-2003 21:15:01 26.1 C 11.26 g/m*3 26.1 C 0 km/h
847 29-05-2003 21:25:01 25.6 C 11.43 g/m*3 25.6 C 0 km/h
848 29-05-2003 21:36:01 24.9 C 10.99 g/m*3 24.9 C 0 km/h
849 29-05-2003 21:46:01 24.7 C 11.09 g/m*3 24.7 C 0 km/h
850 29-05-2003 21:56:01 24.4 C 10.9 g/m*3 24.4 C 0 km/h
Sensor: Nr:Datum:Temp:Abs-Feuchte:Windchill:Wind:
Aussen-T/F 851 29-05-2003 22:06:01 24 C 10.66 g/m*3 24 C 0 km/h
852 29-05-2003 22:16:01 23.8 C 10.97 g/m*3 23.8 C 0 km/h
853 29-05-2003 22:26:01 23.5 C 11 g/m*3 23.5 C 0 km/h
854 29-05-2003 22:36:01 23.1 C 10.75 g/m*3 23.1 C 0 km/h
855 29-05-2003 22:46:01 22.9 C 11.24 g/m*3 22.9 C 0 km/h
856 29-05-2003 22:56:01 22.5 C 10.99 g/m*3 22.5 C 0 km/h
857 29-05-2003 23:06:01 22.5 C 11.19 g/m*3 22.5 C 0 km/h
858 29-05-2003 23:16:01 22.5 C 11.39 g/m*3 22.5 C 0 km/h
859 29-05-2003 23:26:01 22.4 C 11.12 g/m*3 22.4 C 0 km/h
860 29-05-2003 23:36:01 22.3 C 11.26 g/m*3 22.3 C 0 km/h
861 29-05-2003 23:46:01 22.2 C 11.19 g/m*3 22.2 C 0 km/h
862 29-05-2003 23:56:01 22.1 C 11.13 g/m*3 22.1 C 0 km/h
863 30-05-2003 00:06:01 22 C 11.06 g/m*3 22 C 0 km/h
864 30-05-2003 00:16:01 21.8 C 10.94 g/m*3 21.8 C 0 km/h
865 30-05-2003 00:26:01 21.5 C 10.75 g/m*3 21.5 C 0 km/h
866 30-05-2003 00:36:01 21.3 C 10.44 g/m*3 21.3 C 0 km/h
867 30-05-2003 00:46:01 21.2 C 10.56 g/m*3 21.2 C 0 km/h
868 30-05-2003 00:56:01 21.1 C 10.32 g/m*3 21.1 C 0 km/h
869 30-05-2003 01:06:01 20.8 C 10.68 g/m*3 20.8 C 0 km/h
870 30-05-2003 01:16:01 20.6 C 10.56 g/m*3 20.6 C 0 km/h
871 30-05-2003 01:26:01 20.2 C 10.32 g/m*3 20.2 C 0 km/h
872 30-05-2003 01:36:01 20.2 C 10.49 g/m*3 20.2 C 0 km/h
873 30-05-2003 01:46:01 20.2 C 10.49 g/m*3 20.2 C 0 km/h
874 30-05-2003 01:56:01 20.4 C 10.61 g/m*3 20.4 C 0 km/h
875 30-05-2003 02:06:01 20.3 C 10.38 g/m*3 20.3 C 0 km/h
Sensor: Nr:Datum:Temp:Abs-Feuchte:Windchill:Wind:
Aussen-T/F 876 30-05-2003 02:16:01 20.1 C 10.26 g/m*3 20.1 C 0 km/h
877 30-05-2003 02:26:01 19.8 C 10.42 g/m*3 19.8 C 0 km/h
878 30-05-2003 02:36:01 19.6 C 10.13 g/m*3 19.6 C 0 km/h
879 30-05-2003 02:46:01 19.4 C 10.34 g/m*3 19.4 C 0 km/h
880 30-05-2003 02:56:01 19.2 C 10.22 g/m*3 19.2 C 0 km/h
881 30-05-2003 03:06:01 18.8 C 10.15 g/m*3 18.8 C 0 km/h
882 30-05-2003 03:16:01 18.7 C 10.09 g/m*3 18.7 C 0 km/h
883 30-05-2003 03:26:01 18.7 C 10.25 g/m*3 18.7 C 0 km/h
884 30-05-2003 03:36:01 18.5 C 10.13 g/m*3 18.5 C 0 km/h
885 30-05-2003 03:46:01 18.3 C 10.01 g/m*3 18.3 C 0 km/h
886 30-05-2003 03:56:01 18.3 C 10.32 g/m*3 18.3 C 0 km/h
887 30-05-2003 04:16:01 17.8 C 10.17 g/m*3 17.8 C 0 km/h
888 30-05-2003 04:26:01 17.7 C 10.41 g/m*3 17.7 C 0 km/h
889 30-05-2003 04:36:01 17.5 C 10.44 g/m*3 17.5 C 0 km/h
890 30-05-2003 04:46:01 17.4 C 10.37 g/m*3 17.4 C 0 km/h
891 30-05-2003 04:56:01 17.5 C 10.29 g/m*3 17.5 C 0 km/h
892 30-05-2003 05:06:01 17.5 C 10.29 g/m*3 17.5 C 0 km/h
893 30-05-2003 05:16:01 17.3 C 10.16 g/m*3 17.3 C 0 km/h
894 30-05-2003 05:26:01 17.5 C 10.44 g/m*3 17.5 C 0 km/h
895 30-05-2003 05:36:01 17.3 C 10.31 g/m*3 17.3 C 0 km/h
896 30-05-2003 05:46:01 17.1 C 10.34 g/m*3 17.1 C 0 km/h
897 30-05-2003 05:56:01 17 C 10.27 g/m*3 17 C 0 km/h
898 30-05-2003 06:06:01 17 C 10.42 g/m*3 17 C 0 km/h
899 30-05-2003 06:16:01 17 C 10.42 g/m*3 17 C 0 km/h
900 30-05-2003 06:26:01 17.1 C 10.63 g/m*3 17.1 C 0 km/h
Sensor: Nr:Datum:Temp:Abs-Feuchte:Windchill:Wind:
Aussen-T/F 901 30-05-2003 06:36:01 17.2 C 10.54 g/m*3 17.2 C 0 km/h
902 30-05-2003 06:46:01 17.4 C 10.82 g/m*3 17.4 C 0 km/h
903 30-05-2003 06:56:01 17.5 C 10.73 g/m*3 17.5 C 0 km/h
904 30-05-2003 07:06:01 17.9 C 10.84 g/m*3 17.9 C 0 km/h
905 30-05-2003 07:16:01 18.5 C 10.92 g/m*3 18.5 C 0 km/h
906 30-05-2003 07:26:01 18.9 C 11.02 g/m*3 18.9 C 0 km/h
907 30-05-2003 07:36:01 19.1 C 10.98 g/m*3 19.1 C 0 km/h
908 30-05-2003 07:46:01 19.5 C 10.74 g/m*3 19.5 C 0 km/h
909 30-05-2003 07:56:01 19.8 C 10.76 g/m*3 19.8 C 0 km/h
910 30-05-2003 08:06:00 20.2 C 10.84 g/m*3 20.2 C 0 km/h
911 30-05-2003 08:16:00 20.5 C 11.03 g/m*3 20.5 C 0 km/h
912 30-05-2003 08:26:00 20.8 C 11.23 g/m*3 20.8 C 0 km/h
913 30-05-2003 08:36:00 21.2 C 10.93 g/m*3 21.2 C 0 km/h
914 30-05-2003 08:46:00 21.6 C 11 g/m*3 21.6 C 0 km/h
915 30-05-2003 08:56:00 22 C 11.26 g/m*3 22 C 0 km/h
916 30-05-2003 09:06:01 22.5 C 10.79 g/m*3 22.5 C 0 km/h
917 30-05-2003 09:16:01 22.8 C 10.97 g/m*3 22.8 C 0 km/h
918 30-05-2003 09:26:01 23.1 C 10.96 g/m*3 23.1 C 0 km/h
919 30-05-2003 09:36:00 23.5 C 10.79 g/m*3 23.5 C 0 km/h
920 30-05-2003 09:46:00 23.9 C 10.82 g/m*3 23.9 C 0 km/h
921 30-05-2003 09:56:00 23.9 C 10.6 g/m*3 23.9 C 0 km/h
922 30-05-2003 10:06:01 24.4 C 10.9 g/m*3 24.4 C 0 km/h
923 30-05-2003 10:16:01 25.1 C 10.65 g/m*3 25.1 C 0 km/h
924 30-05-2003 10:26:01 25.2 C 10.71 g/m*3 25.2 C 0 km/h
925 30-05-2003 10:36:01 24.8 C 10.7 g/m*3 24.8 C 0 km/h
Sensor: Nr:Datum:Temp:Abs-Feuchte:Windchill:Wind:
Aussen-T/F 926 30-05-2003 10:46:01 25.6 C 11.67 g/m*3 25.6 C 0 km/h
927 30-05-2003 10:56:01 25.9 C 11.38 g/m*3 25.9 C 0 km/h
928 30-05-2003 11:06:01 26.3 C 11.39 g/m*3 26.3 C 0 km/h
929 30-05-2003 11:16:01 26.3 C 11.14 g/m*3 26.3 C 0 km/h
930 30-05-2003 11:26:01 26.7 C 11.64 g/m*3 26.7 C 0 km/h
931 30-05-2003 11:36:00 27.2 C 11.45 g/m*3 27.2 C 0 km/h
932 30-05-2003 11:46:00 27.5 C 11.38 g/m*3 27.5 C 0 km/h
933 30-05-2003 11:56:00 28.4 C 11.4 g/m*3 28.4 C 0 km/h
934 30-05-2003 12:06:01 28.4 C 10.84 g/m*3 28.4 C 0 km/h
935 30-05-2003 12:16:01 29.1 C 10.69 g/m*3 29.1 C 0 km/h
936 30-05-2003 12:26:01 29.8 C 11.4 g/m*3 29.8 C 0 km/h
937 30-05-2003 12:36:01 30.2 C 11.04 g/m*3 30.2 C 0 km/h
938 30-05-2003 12:46:01 30.4 C 10.85 g/m*3 30.4 C 0 km/h
939 30-05-2003 12:56:01 30.7 C 10.39 g/m*3 30.7 C 0 km/h
940 30-05-2003 13:06:00 30.7 C 10.08 g/m*3 30.7 C 0 km/h
941 30-05-2003 13:16:00 31.3 C 9.76 g/m*3 31.3 C 0 km/h
942 30-05-2003 13:26:00 31.3 C 9.76 g/m*3 31.3 C 0 km/h
943 30-05-2003 13:36:01 31.5 C 10.52 g/m*3 31.5 C 0 km/h
944 30-05-2003 13:46:01 31.6 C 9.25 g/m*3 31.6 C 0 km/h
945 30-05-2003 13:56:01 31.6 C 9.58 g/m*3 31.6 C 0 km/h
946 30-05-2003 14:06:01 31.5 C 9.2 g/m*3 31.5 C 0 km/h
947 30-05-2003 14:16:01 31.4 C 10.14 g/m*3 31.4 C 0 km/h
948 30-05-2003 14:26:01 31.1 C 9.65 g/m*3 31.1 C 0 km/h
949 30-05-2003 14:36:01 31 C 10.56 g/m*3 31 C 0 km/h
950 30-05-2003 14:46:01 31.4 C 10.79 g/m*3 31.4 C 0 km/h
Sensor: Nr:Datum:Temp:Abs-Feuchte:Windchill:Wind:
Aussen-T/F 951 30-05-2003 14:56:01 31.5 C 10.52 g/m*3 31.5 C 0 km/h
952 30-05-2003 15:06:01 31.4 C 11.12 g/m*3 31.4 C 0 km/h
953 30-05-2003 15:16:01 31.4 C 10.46 g/m*3 31.4 C 0 km/h
954 30-05-2003 15:26:01 31.3 C 11.38 g/m*3 31.3 C 0 km/h
955 30-05-2003 15:36:01 31.9 C 9.74 g/m*3 31.9 C 0 km/h
956 30-05-2003 15:46:01 32.4 C 9.31 g/m*3 32.4 C 0 km/h
957 30-05-2003 15:56:01 32.7 C 9.46 g/m*3 32.7 C 0 km/h
958 30-05-2003 16:06:01 32.9 C 9.56 g/m*3 32.9 C 0 km/h
959 30-05-2003 16:16:01 33.1 C 9.66 g/m*3 33.1 C 0 km/h
960 30-05-2003 16:26:01 33.3 C 9.04 g/m*3 33.3 C 0 km/h
961 30-05-2003 16:36:01 33.3 C 9.04 g/m*3 33.3 C 0 km/h
962 30-05-2003 16:46:01 32.5 C 10.4 g/m*3 32.5 C 0 km/h
963 30-05-2003 16:56:01 31.8 C 11.02 g/m*3 31.8 C 0 km/h
964 30-05-2003 17:26:01 30.3 C 12.02 g/m*3 30.3 C 0 km/h
965 30-05-2003 17:56:01 27.7 C 12.3 g/m*3 27.7 C 0 km/h
966 30-05-2003 18:06:01 25.9 C 12.59 g/m*3 25.9 C 0 km/h
967 30-05-2003 18:16:01 24.7 C 12 g/m*3 24.7 C 0 km/h
968 30-05-2003 18:26:01 21.7 C 12.4 g/m*3 21.7 C 0 km/h
969 30-05-2003 18:36:00 21.7 C 12.78 g/m*3 21.7 C 0 km/h
970 30-05-2003 18:46:00 21.9 C 12.54 g/m*3 21.9 C 0 km/h
971 30-05-2003 18:56:00 22.2 C 12.57 g/m*3 22.2 C 0 km/h
972 30-05-2003 19:06:01 22.4 C 12.31 g/m*3 22.4 C 0 km/h
973 30-05-2003 19:16:01 23.3 C 12.55 g/m*3 23.3 C 0 km/h
974 30-05-2003 19:26:01 24.9 C 12.13 g/m*3 24.9 C 0 km/h
975 30-05-2003 19:36:02 25.3 C 12.17 g/m*3 25.3 C 0 km/h
Sensor: Nr:Datum:Temp:Abs-Feuchte:Windchill:Wind:
Aussen-T/F 976 30-05-2003 19:46:02 25.7 C 12.45 g/m*3 25.7 C 0 km/h
977 30-05-2003 19:56:02 25.3 C 12.64 g/m*3 25.3 C 0 km/h
978 30-05-2003 20:06:02 25.3 C 12.64 g/m*3 25.3 C 0 km/h
979 30-05-2003 20:16:02 24.9 C 13.28 g/m*3 24.9 C 0 km/h
980 30-05-2003 20:26:02 24.2 C 12.76 g/m*3 24.2 C 0 km/h
981 30-05-2003 20:36:01 23.7 C 12.83 g/m*3 23.7 C 0 km/h
982 30-05-2003 20:46:01 23.5 C 12.69 g/m*3 23.5 C 0 km/h
983 30-05-2003 20:56:01 23.3 C 12.75 g/m*3 23.3 C 0 km/h
984 30-05-2003 21:06:02 23.2 C 12.68 g/m*3 23.2 C 0 km/h
985 30-05-2003 21:16:02 23.1 C 12.82 g/m*3 23.1 C 0 km/h
986 30-05-2003 21:26:02 22.8 C 12.8 g/m*3 22.8 C 0 km/h
987 30-05-2003 21:37:00 22.6 C 12.66 g/m*3 22.6 C 0 km/h
988 30-05-2003 21:47:00 22.5 C 12.58 g/m*3 22.5 C 0 km/h
989 30-05-2003 21:57:00 22.4 C 12.51 g/m*3 22.4 C 0 km/h
990 30-05-2003 22:07:00 22.5 C 12.58 g/m*3 22.5 C 0 km/h
991 30-05-2003 22:17:00 22.4 C 12.51 g/m*3 22.4 C 0 km/h
992 30-05-2003 22:27:00 22 C 12.62 g/m*3 22 C 0 km/h
993 30-05-2003 22:37:00 21.9 C 12.93 g/m*3 21.9 C 0 km/h
994 30-05-2003 22:47:00 21.8 C 13.05 g/m*3 21.8 C 0 km/h
995 30-05-2003 22:57:00 21.6 C 13.09 g/m*3 21.6 C 0 km/h
996 30-05-2003 23:07:00 21.6 C 13.09 g/m*3 21.6 C 0 km/h
997 30-05-2003 23:17:00 21.4 C 12.75 g/m*3 21.4 C 0 km/h
998 30-05-2003 23:27:00 21.3 C 12.68 g/m*3 21.3 C 0 km/h
999 30-05-2003 23:37:00 21.4 C 12.75 g/m*3 21.4 C 0 km/h
1000 30-05-2003 23:47:00 21.3 C 12.68 g/m*3 21.3 C 0 km/h
Sensor: Nr:Datum:Temp:Abs-Feuchte:Windchill:Wind:
Aussen-T/F 1001 30-05-2003 23:57:00 21.1 C 12.71 g/m*3 21.1 C 0 km/h
1002 31-05-2003 00:07:00 21 C 12.64 g/m*3 21 C 0 km/h
1003 31-05-2003 00:17:00 20.7 C 12.78 g/m*3 20.7 C 0 km/h
1004 31-05-2003 00:27:00 20.2 C 12.94 g/m*3 20.2 C 0 km/h
1005 31-05-2003 00:37:00 20 C 12.96 g/m*3 20 C 0 km/h
1006 31-05-2003 00:47:00 19.9 C 13.06 g/m*3 19.9 C 0 km/h
1007 31-05-2003 00:57:00 19.8 C 12.98 g/m*3 19.8 C 0 km/h
1008 31-05-2003 01:07:00 19.8 C 12.81 g/m*3 19.8 C 0 km/h
1009 31-05-2003 01:17:00 19.7 C 12.74 g/m*3 19.7 C 0 km/h
1010 31-05-2003 01:27:00 19.5 C 12.59 g/m*3 19.5 C 0 km/h
1011 31-05-2003 01:37:00 19.5 C 12.75 g/m*3 19.5 C 0 km/h
1012 31-05-2003 01:47:00 19.3 C 12.61 g/m*3 19.3 C 0 km/h
1013 31-05-2003 01:57:00 19.3 C 12.61 g/m*3 19.3 C 0 km/h
1014 31-05-2003 02:07:00 19 C 12.39 g/m*3 19 C 0 km/h
1015 31-05-2003 02:17:00 18.9 C 12.64 g/m*3 18.9 C 0 km/h
1016 31-05-2003 02:27:00 18.9 C 12.64 g/m*3 18.9 C 0 km/h
1017 31-05-2003 02:37:00 18.8 C 12.56 g/m*3 18.8 C 0 km/h
1018 31-05-2003 02:47:00 18.8 C 12.56 g/m*3 18.8 C 0 km/h
1019 31-05-2003 02:57:00 18.5 C 12.5 g/m*3 18.5 C 0 km/h
1020 31-05-2003 03:07:00 18.3 C 12.35 g/m*3 18.3 C 0 km/h
1021 31-05-2003 03:17:00 18.2 C 12.43 g/m*3 18.2 C 0 km/h
1022 31-05-2003 03:27:00 18.2 C 12.43 g/m*3 18.2 C 0 km/h
1023 31-05-2003 03:37:00 18 C 12.75 g/m*3 18 C 0 km/h
1024 31-05-2003 03:47:00 17.9 C 12.67 g/m*3 17.9 C 0 km/h
1025 31-05-2003 03:57:00 17.9 C 12.67 g/m*3 17.9 C 0 km/h
Sensor: Nr:Datum:Temp:Abs-Feuchte:Windchill:Wind:
Aussen-T/F 1026 31-05-2003 04:07:00 17.7 C 12.52 g/m*3 17.7 C 0 km/h
1027 31-05-2003 04:17:00 17.7 C 12.52 g/m*3 17.7 C 0 km/h
1028 31-05-2003 04:27:00 17.6 C 12.6 g/m*3 17.6 C 0 km/h
1029 31-05-2003 04:37:00 17.4 C 12.3 g/m*3 17.4 C 0 km/h
1030 31-05-2003 04:47:00 17.4 C 12.45 g/m*3 17.4 C 0 km/h
1031 31-05-2003 04:57:00 17 C 12.3 g/m*3 17 C 0 km/h
1032 31-05-2003 05:07:00 16.9 C 12.37 g/m*3 16.9 C 0 km/h
1033 31-05-2003 05:17:00 16.7 C 12.22 g/m*3 16.7 C 0 km/h
1034 31-05-2003 05:27:00 16.6 C 12.43 g/m*3 16.6 C 0 km/h
1035 31-05-2003 05:37:00 16.6 C 12.57 g/m*3 16.6 C 0 km/h
1036 31-05-2003 05:47:00 16.6 C 12.43 g/m*3 16.6 C 0 km/h
1037 31-05-2003 05:57:00 16.6 C 12.43 g/m*3 16.6 C 0 km/h
1038 31-05-2003 06:07:00 16.6 C 12.43 g/m*3 16.6 C 0 km/h
1039 31-05-2003 06:17:00 16.6 C 12.57 g/m*3 16.6 C 0 km/h
1040 31-05-2003 06:27:00 17 C 12.73 g/m*3 17 C 0 km/h
1041 31-05-2003 06:37:00 17.5 C 12.82 g/m*3 17.5 C 0 km/h
1042 31-05-2003 06:47:00 17.6 C 12.6 g/m*3 17.6 C 0 km/h
1043 31-05-2003 06:57:00 17.5 C 12.52 g/m*3 17.5 C 0 km/h
1044 31-05-2003 07:07:00 16.9 C 12.51 g/m*3 16.9 C 0 km/h
1045 31-05-2003 07:17:00 16.8 C 12.58 g/m*3 16.8 C 0 km/h
1046 31-05-2003 07:27:00 16.8 C 12.58 g/m*3 16.8 C 0 km/h
1047 31-05-2003 07:37:00 17.4 C 12.75 g/m*3 17.4 C 0 km/h
1048 31-05-2003 07:47:00 17.6 C 12.75 g/m*3 17.6 C 0 km/h
1049 31-05-2003 07:57:00 17.3 C 12.52 g/m*3 17.3 C 0 km/h
1050 31-05-2003 08:07:00 17.6 C 12.6 g/m*3 17.6 C 0 km/h
Sensor: Nr:Datum:Temp:Abs-Feuchte:Windchill:Wind:
Aussen-T/F 1051 31-05-2003 08:17:00 18.2 C 12.75 g/m*3 18.2 C 0 km/h
1052 31-05-2003 08:27:00 18.9 C 12.96 g/m*3 18.9 C 0 km/h
1053 31-05-2003 08:37:00 19.3 C 12.77 g/m*3 19.3 C 0 km/h
1054 31-05-2003 08:47:00 20 C 12.79 g/m*3 20 C 0 km/h
1055 31-05-2003 08:57:00 19.3 C 12.61 g/m*3 19.3 C 0 km/h
1056 31-05-2003 09:07:00 19.3 C 12.94 g/m*3 19.3 C 0 km/h
1057 31-05-2003 09:17:00 19.5 C 13.09 g/m*3 19.5 C 0 km/h
1058 31-05-2003 09:27:00 20 C 13.13 g/m*3 20 C 0 km/h
1059 31-05-2003 09:37:00 20.7 C 13.14 g/m*3 20.7 C 0 km/h
1060 31-05-2003 09:47:00 21.4 C 13.31 g/m*3 21.4 C 0 km/h
1061 31-05-2003 09:57:00 22.1 C 13.47 g/m*3 22.1 C 0 km/h
1062 31-05-2003 10:07:01 22.7 C 13.33 g/m*3 22.7 C 0 km/h
1063 31-05-2003 10:17:01 23.3 C 13.59 g/m*3 23.3 C 0 km/h
1064 31-05-2003 10:27:01 23.8 C 13.77 g/m*3 23.8 C 0 km/h
1065 31-05-2003 10:37:02 24.1 C 13.57 g/m*3 24.1 C 0 km/h
1066 31-05-2003 10:47:02 24.8 C 13.88 g/m*3 24.8 C 0 km/h
1067 31-05-2003 10:57:02 25.3 C 13.58 g/m*3 25.3 C 0 km/h
1068 31-05-2003 11:07:03 25.8 C 13.72 g/m*3 25.8 C 0 km/h
1069 31-05-2003 11:17:03 26 C 13.39 g/m*3 26 C 0 km/h
1070 31-05-2003 11:27:03 26.5 C 13.77 g/m*3 26.5 C 0 km/h
1071 31-05-2003 11:37:02 25.9 C 13.56 g/m*3 25.9 C 0 km/h
1072 31-05-2003 11:47:02 26.1 C 13.22 g/m*3 26.1 C 0 km/h
1073 31-05-2003 11:57:02 27.1 C 13.2 g/m*3 27.1 C 0 km/h
1074 31-05-2003 12:07:01 26.8 C 12.98 g/m*3 26.8 C 0 km/h
1075 31-05-2003 12:17:01 28.1 C 12.85 g/m*3 28.1 C 0 km/h
Sensor: Nr:Datum:Temp:Abs-Feuchte:Windchill:Wind:
Aussen-T/F 1076 31-05-2003 12:27:01 26.5 C 13.27 g/m*3 26.5 C 0 km/h
1077 31-05-2003 12:37:01 25.6 C 13.09 g/m*3 25.6 C 0 km/h
1078 31-05-2003 12:47:01 25.2 C 13.5 g/m*3 25.2 C 0 km/h
1079 31-05-2003 12:57:01 25.7 C 14.13 g/m*3 25.7 C 0 km/h
1080 31-05-2003 13:07:00 27.9 C 12.98 g/m*3 27.9 C 0 km/h
1081 31-05-2003 13:17:00 29.2 C 12.2 g/m*3 29.2 C 0 km/h
1082 31-05-2003 13:27:00 30.2 C 11.96 g/m*3 30.2 C 0 km/h
1083 31-05-2003 13:37:00 30.2 C 12.57 g/m*3 30.2 C 0 km/h
1084 31-05-2003 13:47:00 29.7 C 12.53 g/m*3 29.7 C 0 km/h
1085 31-05-2003 13:57:00 27.1 C 11.9 g/m*3 27.1 C 0 km/h
1086 31-05-2003 14:07:01 26.7 C 12.4 g/m*3 26.7 C 0 km/h
1087 31-05-2003 14:17:01 26.6 C 13.09 g/m*3 26.6 C 0 km/h
1088 31-05-2003 14:27:01 26.7 C 12.4 g/m*3 26.7 C 0 km/h
1089 31-05-2003 14:37:01 27.7 C 13.64 g/m*3 27.7 C 0 km/h
1090 31-05-2003 14:47:01 29.8 C 12.6 g/m*3 29.8 C 0 km/h
1091 31-05-2003 14:57:01 28.7 C 12.15 g/m*3 28.7 C 0 km/h
1092 31-05-2003 15:07:01 28 C 12.24 g/m*3 28 C 0 km/h
1093 31-05-2003 15:17:01 27.5 C 12.7 g/m*3 27.5 C 0 km/h
1094 31-05-2003 15:27:01 27.2 C 12.75 g/m*3 27.2 C 0 km/h
1095 31-05-2003 15:37:01 27.2 C 13.01 g/m*3 27.2 C 0 km/h
1096 31-05-2003 15:47:01 27.2 C 13.79 g/m*3 27.2 C 0 km/h
1097 31-05-2003 15:57:01 27 C 13.64 g/m*3 27 C 0 km/h
1098 31-05-2003 16:07:01 25.9 C 13.07 g/m*3 25.9 C 0 km/h
1099 31-05-2003 16:17:01 25.2 C 12.57 g/m*3 25.2 C 0 km/h
1100 31-05-2003 16:27:01 24.7 C 12.22 g/m*3 24.7 C 0 km/h
Sensor: Nr:Datum:Temp:Abs-Feuchte:Windchill:Wind:
Aussen-T/F 1101 31-05-2003 16:37:01 24.7 C 12.22 g/m*3 24.7 C 0 km/h
1102 31-05-2003 16:47:01 25.1 C 12.04 g/m*3 25.1 C 0 km/h
1103 31-05-2003 16:57:01 26.2 C 12.31 g/m*3 26.2 C 0 km/h
1104 31-05-2003 17:07:01 26.9 C 12.29 g/m*3 26.9 C 0 km/h
1105 31-05-2003 17:17:01 26.7 C 12.4 g/m*3 26.7 C 0 km/h
1106 31-05-2003 17:27:01 26.6 C 12.08 g/m*3 26.6 C 0 km/h
1107 31-05-2003 17:37:01 26.2 C 12.31 g/m*3 26.2 C 0 km/h
1108 31-05-2003 17:47:01 25.8 C 12.52 g/m*3 25.8 C 0 km/h
1109 31-05-2003 17:57:01 25.8 C 12.28 g/m*3 25.8 C 0 km/h
1110 31-05-2003 18:07:02 25.5 C 12.31 g/m*3 25.5 C 0 km/h
1111 31-05-2003 18:17:02 23.5 C 12.69 g/m*3 23.5 C 0 km/h
1112 31-05-2003 18:27:02 22.2 C 14.33 g/m*3 22.2 C 0 km/h
1113 31-05-2003 18:37:02 21.2 C 15.01 g/m*3 21.2 C 0 km/h
1114 31-05-2003 18:47:02 19.8 C 14.35 g/m*3 19.8 C 0 km/h
1115 31-05-2003 18:57:02 19.6 C 14.86 g/m*3 19.6 C 0 km/h
1116 31-05-2003 19:07:02 19.7 C 14.94 g/m*3 19.7 C 0 km/h
1117 31-05-2003 19:17:02 19.7 C 14.77 g/m*3 19.7 C 0 km/h
1118 31-05-2003 19:27:02 19.5 C 14.6 g/m*3 19.5 C 0 km/h
1119 31-05-2003 19:37:00 19.7 C 14.77 g/m*3 19.7 C 0 km/h
1120 31-05-2003 19:47:00 19.5 C 13.93 g/m*3 19.5 C 0 km/h
1121 31-05-2003 19:57:00 19.6 C 14.18 g/m*3 19.6 C 0 km/h
1122 31-05-2003 20:07:03 20.1 C 14.43 g/m*3 20.1 C 0 km/h
1123 31-05-2003 20:17:03 20.6 C 14.32 g/m*3 20.6 C 0 km/h
1124 31-05-2003 20:27:03 21 C 14.29 g/m*3 21 C 0 km/h
1125 31-05-2003 20:37:02 21.1 C 13.82 g/m*3 21.1 C 0 km/h
Sensor: Nr:Datum:Temp:Abs-Feuchte:Windchill:Wind:
Aussen-T/F 1126 31-05-2003 20:47:02 20.9 C 13.84 g/m*3 20.9 C 0 km/h
1127 31-05-2003 20:57:02 20.7 C 14.04 g/m*3 20.7 C 0 km/h
1128 31-05-2003 21:07:01 20.4 C 13.8 g/m*3 20.4 C 0 km/h
1129 31-05-2003 21:17:01 19.9 C 13.4 g/m*3 19.9 C 0 km/h
1130 31-05-2003 21:27:01 19.7 C 13.25 g/m*3 19.7 C 0 km/h
1131 31-05-2003 21:37:02 19.5 C 13.43 g/m*3 19.5 C 0 km/h
1132 31-05-2003 21:47:02 19.4 C 13.51 g/m*3 19.4 C 0 km/h
1133 31-05-2003 21:57:02 19.1 C 13.28 g/m*3 19.1 C 0 km/h
1134 31-05-2003 22:08:01 18.8 C 13.37 g/m*3 18.8 C 0 km/h
1135 31-05-2003 22:18:01 18.6 C 13.37 g/m*3 18.6 C 0 km/h
1136 31-05-2003 22:28:01 18.3 C 13.29 g/m*3 18.3 C 0 km/h
1137 31-05-2003 22:38:01 18.3 C 13.29 g/m*3 18.3 C 0 km/h
1138 31-05-2003 22:58:01 18.1 C 13.13 g/m*3 18.1 C 0 km/h
1139 31-05-2003 23:08:01 18.1 C 13.29 g/m*3 18.1 C 0 km/h
1140 31-05-2003 23:18:01 17.9 C 13.28 g/m*3 17.9 C 0 km/h
1141 31-05-2003 23:28:01 17.8 C 13.2 g/m*3 17.8 C 0 km/h
1142 31-05-2003 23:38:01 17.9 C 13.28 g/m*3 17.9 C 0 km/h
1143 31-05-2003 23:48:01 17.7 C 13.13 g/m*3 17.7 C 0 km/h
1144 31-05-2003 23:58:01 17.6 C 12.9 g/m*3 17.6 C 0 km/h
1145 01-06-2003 00:08:01 17.6 C 13.05 g/m*3 17.6 C 0 km/h
1146 01-06-2003 00:18:01 17.7 C 13.13 g/m*3 17.7 C 0 km/h
1147 01-06-2003 00:28:01 17.6 C 13.05 g/m*3 17.6 C 0 km/h
1148 01-06-2003 00:38:01 17.4 C 12.89 g/m*3 17.4 C 0 km/h
1149 01-06-2003 00:48:01 17.2 C 12.74 g/m*3 17.2 C 0 km/h
1150 01-06-2003 00:58:01 17.3 C 12.82 g/m*3 17.3 C 0 km/h
Sensor: Nr:Datum:Temp:Abs-Feuchte:Windchill:Wind:
Aussen-T/F 1151 01-06-2003 01:08:01 17.1 C 12.66 g/m*3 17.1 C 0 km/h
1152 01-06-2003 01:18:01 17 C 12.59 g/m*3 17 C 0 km/h
1153 01-06-2003 01:28:01 17 C 12.59 g/m*3 17 C 0 km/h
1154 01-06-2003 01:38:01 16.9 C 12.66 g/m*3 16.9 C 0 km/h
1155 01-06-2003 01:48:01 16.9 C 12.66 g/m*3 16.9 C 0 km/h
1156 01-06-2003 01:58:01 16.9 C 12.66 g/m*3 16.9 C 0 km/h
1157 01-06-2003 02:08:01 17.1 C 12.66 g/m*3 17.1 C 0 km/h
1158 01-06-2003 02:18:01 17.4 C 12.75 g/m*3 17.4 C 0 km/h
1159 01-06-2003 02:28:01 17.5 C 12.82 g/m*3 17.5 C 0 km/h
1160 01-06-2003 02:38:01 17.5 C 12.82 g/m*3 17.5 C 0 km/h
1161 01-06-2003 02:48:01 17.6 C 12.9 g/m*3 17.6 C 0 km/h
1162 01-06-2003 02:58:01 17.5 C 12.82 g/m*3 17.5 C 0 km/h
1163 01-06-2003 03:08:01 17.4 C 12.89 g/m*3 17.4 C 0 km/h
1164 01-06-2003 03:18:01 17.4 C 12.89 g/m*3 17.4 C 0 km/h
1165 01-06-2003 03:28:01 17.5 C 12.97 g/m*3 17.5 C 0 km/h
1166 01-06-2003 03:38:01 17.2 C 12.74 g/m*3 17.2 C 0 km/h
1167 01-06-2003 03:48:01 17.2 C 12.74 g/m*3 17.2 C 0 km/h
1168 01-06-2003 03:58:01 17.2 C 12.74 g/m*3 17.2 C 0 km/h
1169 01-06-2003 04:08:01 17.2 C 12.74 g/m*3 17.2 C 0 km/h
1170 01-06-2003 04:18:01 17.2 C 12.74 g/m*3 17.2 C 0 km/h
1171 01-06-2003 04:28:01 17.2 C 12.74 g/m*3 17.2 C 0 km/h
1172 01-06-2003 04:38:01 17.1 C 12.66 g/m*3 17.1 C 0 km/h
1173 01-06-2003 04:48:01 16.7 C 12.51 g/m*3 16.7 C 0 km/h
1174 01-06-2003 04:58:01 16.7 C 12.65 g/m*3 16.7 C 0 km/h
1175 01-06-2003 05:08:01 16.8 C 12.72 g/m*3 16.8 C 0 km/h
Sensor: Nr:Datum:Temp:Abs-Feuchte:Windchill:Wind:
Aussen-T/F 1176 01-06-2003 05:18:01 16.8 C 12.72 g/m*3 16.8 C 0 km/h
1177 01-06-2003 05:28:01 16.6 C 12.43 g/m*3 16.6 C 0 km/h
1178 01-06-2003 05:38:01 16.7 C 12.65 g/m*3 16.7 C 0 km/h
1179 01-06-2003 05:48:01 16.9 C 12.66 g/m*3 16.9 C 0 km/h
1180 01-06-2003 05:58:01 17 C 12.59 g/m*3 17 C 0 km/h
1181 01-06-2003 06:08:01 16.9 C 12.66 g/m*3 16.9 C 0 km/h
1182 01-06-2003 06:18:01 17 C 12.59 g/m*3 17 C 0 km/h
1183 01-06-2003 06:28:01 16.9 C 12.66 g/m*3 16.9 C 0 km/h
1184 01-06-2003 06:38:01 17.2 C 12.59 g/m*3 17.2 C 0 km/h
1185 01-06-2003 06:48:01 17.3 C 12.52 g/m*3 17.3 C 0 km/h
1186 01-06-2003 06:58:01 17.3 C 12.37 g/m*3 17.3 C 0 km/h
1187 01-06-2003 07:08:01 17.2 C 12.15 g/m*3 17.2 C 0 km/h
1188 01-06-2003 07:18:01 17.7 C 12.22 g/m*3 17.7 C 0 km/h
1189 01-06-2003 07:28:01 18 C 12.29 g/m*3 18 C 0 km/h
1190 01-06-2003 07:38:01 18 C 12.13 g/m*3 18 C 0 km/h
1191 01-06-2003 07:48:01 18.3 C 12.66 g/m*3 18.3 C 0 km/h
1192 01-06-2003 07:58:01 18.3 C 12.35 g/m*3 18.3 C 0 km/h
1193 01-06-2003 08:08:01 18.3 C 12.2 g/m*3 18.3 C 0 km/h
1194 01-06-2003 08:18:01 18.5 C 12.34 g/m*3 18.5 C 0 km/h
1195 01-06-2003 08:28:01 18.7 C 12.33 g/m*3 18.7 C 0 km/h
1196 01-06-2003 08:38:01 19 C 12.22 g/m*3 19 C 0 km/h
1197 01-06-2003 08:48:01 19.2 C 12.37 g/m*3 19.2 C 0 km/h
1198 01-06-2003 08:58:01 19.3 C 12.11 g/m*3 19.3 C 0 km/h
1199 01-06-2003 09:08:00 19.9 C 12.54 g/m*3 19.9 C 0 km/h
1200 01-06-2003 09:18:00 19.9 C 12.37 g/m*3 19.9 C 0 km/h
Sensor: Nr:Datum:Temp:Abs-Feuchte:Windchill:Wind:
Aussen-T/F 1201 01-06-2003 09:28:00 20.7 C 12.78 g/m*3 20.7 C 0 km/h
1202 01-06-2003 09:38:00 21.3 C 12.68 g/m*3 21.3 C 0 km/h
1203 01-06-2003 09:48:00 21.4 C 12.56 g/m*3 21.4 C 0 km/h
1204 01-06-2003 09:58:00 21.7 C 12.78 g/m*3 21.7 C 0 km/h
1205 01-06-2003 10:08:01 22 C 12.81 g/m*3 22 C 0 km/h
1206 01-06-2003 10:18:01 22.1 C 12.69 g/m*3 22.1 C 0 km/h
1207 01-06-2003 10:28:01 22.4 C 12.51 g/m*3 22.4 C 0 km/h
1208 01-06-2003 10:38:01 22.7 C 13.13 g/m*3 22.7 C 0 km/h
1209 01-06-2003 10:48:01 22.2 C 12.57 g/m*3 22.2 C 0 km/h
1210 01-06-2003 10:58:01 22.6 C 12.86 g/m*3 22.6 C 0 km/h
1211 01-06-2003 11:08:01 23.2 C 13.1 g/m*3 23.2 C 0 km/h
1212 01-06-2003 11:18:01 23.7 C 13.69 g/m*3 23.7 C 0 km/h
1213 01-06-2003 11:28:01 24.1 C 13.57 g/m*3 24.1 C 0 km/h
1214 01-06-2003 11:38:02 24.8 C 13.43 g/m*3 24.8 C 0 km/h
1215 01-06-2003 11:48:02 25.3 C 13.81 g/m*3 25.3 C 0 km/h
1216 01-06-2003 11:58:02 25.9 C 13.56 g/m*3 25.9 C 0 km/h
1217 01-06-2003 12:08:01 26.9 C 13.56 g/m*3 26.9 C 0 km/h
1218 01-06-2003 12:18:01 27 C 12.87 g/m*3 27 C 0 km/h
1219 01-06-2003 12:28:01 27.5 C 13.23 g/m*3 27.5 C 0 km/h
1220 01-06-2003 12:38:00 27.7 C 13.37 g/m*3 27.7 C 0 km/h
1221 01-06-2003 12:48:00 28.1 C 12.85 g/m*3 28.1 C 0 km/h
1222 01-06-2003 12:58:00 28.4 C 12.79 g/m*3 28.4 C 0 km/h
1223 01-06-2003 13:08:00 29.1 C 12.71 g/m*3 29.1 C 0 km/h
1224 01-06-2003 13:18:00 27.7 C 12.57 g/m*3 27.7 C 0 km/h
1225 01-06-2003 13:28:00 28.9 C 12.57 g/m*3 28.9 C 0 km/h
Sensor: Nr:Datum:Temp:Abs-Feuchte:Windchill:Wind:
Aussen-T/F 1226 01-06-2003 13:38:01 29.8 C 12.9 g/m*3 29.8 C 0 km/h
1227 01-06-2003 13:48:01 30.1 C 11.89 g/m*3 30.1 C 0 km/h
1228 01-06-2003 13:58:01 30.1 C 11.89 g/m*3 30.1 C 0 km/h
1229 01-06-2003 14:08:02 29.9 C 12.37 g/m*3 29.9 C 0 km/h
1230 01-06-2003 14:18:02 29.1 C 11.84 g/m*3 29.1 C 0 km/h
1231 01-06-2003 14:28:02 28.9 C 12.28 g/m*3 28.9 C 0 km/h
1232 01-06-2003 14:38:01 29.2 C 11.91 g/m*3 29.2 C 0 km/h
1233 01-06-2003 14:48:01 29.8 C 12.6 g/m*3 29.8 C 0 km/h
1234 01-06-2003 14:58:01 30.6 C 11.9 g/m*3 30.6 C 0 km/h
1235 01-06-2003 15:08:01 30.8 C 12.35 g/m*3 30.8 C 0 km/h
1236 01-06-2003 15:18:01 30.6 C 11.28 g/m*3 30.6 C 0 km/h
1237 01-06-2003 15:28:01 30.4 C 11.47 g/m*3 30.4 C 0 km/h
1238 01-06-2003 15:38:36 30.7 C 12.28 g/m*3 30.7 C 0 km/h
1239 01-06-2003 15:48:36 31.2 C 11.97 g/m*3 31.2 C 0 km/h
1240 01-06-2003 15:58:36 30.8 C 12.03 g/m*3 30.8 C 0 km/h
1241 01-06-2003 16:08:01 30.6 C 11.9 g/m*3 30.6 C 0 km/h
1242 01-06-2003 16:18:01 30.7 C 12.6 g/m*3 30.7 C 0 km/h
1243 01-06-2003 16:28:01 30.5 C 13.08 g/m*3 30.5 C 0 km/h
1244 01-06-2003 16:38:01 30.7 C 13.23 g/m*3 30.7 C 0 km/h
1245 01-06-2003 16:48:01 30.8 C 12.66 g/m*3 30.8 C 0 km/h
1246 01-06-2003 16:58:01 30.9 C 13.37 g/m*3 30.9 C 0 km/h
1247 01-06-2003 17:08:01 30.6 C 12.84 g/m*3 30.6 C 0 km/h
1248 01-06-2003 17:18:01 30.6 C 12.84 g/m*3 30.6 C 0 km/h
1249 01-06-2003 17:28:01 30.8 C 12.35 g/m*3 30.8 C 0 km/h
1250 01-06-2003 17:38:00 31.1 C 12.55 g/m*3 31.1 C 0 km/h
Sensor: Nr:Datum:Temp:Abs-Feuchte:Windchill:Wind:
Aussen-T/F 1251 01-06-2003 17:48:00 31.1 C 11.9 g/m*3 31.1 C 0 km/h
1252 01-06-2003 17:58:00 31.2 C 11.97 g/m*3 31.2 C 0 km/h
1253 01-06-2003 18:18:01 31.3 C 11.71 g/m*3 31.3 C 0 km/h
1254 01-06-2003 18:28:01 31.2 C 10.67 g/m*3 31.2 C 0 km/h
1255 01-06-2003 18:38:00 31.3 C 11.06 g/m*3 31.3 C 0 km/h
1256 01-06-2003 18:48:00 31.2 C 11.32 g/m*3 31.2 C 0 km/h
1257 01-06-2003 18:58:00 31.2 C 11.32 g/m*3 31.2 C 0 km/h
1258 01-06-2003 19:08:00 31.2 C 11 g/m*3 31.2 C 0 km/h
1259 01-06-2003 19:18:00 31 C 11.2 g/m*3 31 C 0 km/h
1260 01-06-2003 19:28:00 30.9 C 11.78 g/m*3 30.9 C 0 km/h
1261 01-06-2003 19:38:02 30.7 C 11.02 g/m*3 30.7 C 0 km/h
1262 01-06-2003 19:48:02 30.6 C 11.9 g/m*3 30.6 C 0 km/h
1263 01-06-2003 19:58:02 30.3 C 11.71 g/m*3 30.3 C 0 km/h
1264 01-06-2003 20:08:01 30.1 C 12.5 g/m*3 30.1 C 0 km/h
1265 01-06-2003 20:18:01 29.5 C 12.69 g/m*3 29.5 C 0 km/h
1266 01-06-2003 20:28:01 29 C 12.35 g/m*3 29 C 0 km/h
1267 01-06-2003 20:38:01 28 C 12.24 g/m*3 28 C 0 km/h
1268 01-06-2003 20:48:01 27.3 C 12.3 g/m*3 27.3 C 0 km/h
1269 01-06-2003 20:58:01 25.8 C 12.28 g/m*3 25.8 C 0 km/h
1270 01-06-2003 21:08:01 25.1 C 12.04 g/m*3 25.1 C 0 km/h
1271 01-06-2003 21:18:01 24.5 C 11.86 g/m*3 24.5 C 0 km/h
1272 01-06-2003 21:28:01 24.1 C 12.25 g/m*3 24.1 C 0 km/h
1273 01-06-2003 21:39:01 23.8 C 12.26 g/m*3 23.8 C 0 km/h
1274 01-06-2003 21:49:01 23.5 C 12.27 g/m*3 23.5 C 0 km/h
1275 01-06-2003 21:59:01 23.2 C 12.47 g/m*3 23.2 C 0 km/h
Sensor: Nr:Datum:Temp:Abs-Feuchte:Windchill:Wind:
Aussen-T/F 1276 01-06-2003 22:09:01 23.2 C 12.27 g/m*3 23.2 C 0 km/h
1277 01-06-2003 22:19:01 22.9 C 12.47 g/m*3 22.9 C 0 km/h
1278 01-06-2003 22:29:01 22.8 C 12.6 g/m*3 22.8 C 0 km/h
1279 01-06-2003 22:39:01 22.6 C 12.46 g/m*3 22.6 C 0 km/h
1280 01-06-2003 22:49:01 22.3 C 12.44 g/m*3 22.3 C 0 km/h
1281 01-06-2003 22:59:01 22.1 C 12.3 g/m*3 22.1 C 0 km/h
1282 01-06-2003 23:09:01 22 C 12.42 g/m*3 22 C 0 km/h
1283 01-06-2003 23:19:01 21.7 C 12.4 g/m*3 21.7 C 0 km/h
1284 01-06-2003 23:29:01 21.6 C 12.52 g/m*3 21.6 C 0 km/h
1285 01-06-2003 23:39:01 21.3 C 12.49 g/m*3 21.3 C 0 km/h
1286 01-06-2003 23:49:01 21.1 C 12.34 g/m*3 21.1 C 0 km/h
1287 01-06-2003 23:59:01 21 C 12.46 g/m*3 21 C 0 km/h
1288 02-06-2003 00:09:01 20.8 C 12.49 g/m*3 20.8 C 0 km/h
1289 02-06-2003 00:19:01 20.5 C 12.46 g/m*3 20.5 C 0 km/h
1290 02-06-2003 00:29:01 20.4 C 12.38 g/m*3 20.4 C 0 km/h
1291 02-06-2003 00:39:01 20.2 C 12.24 g/m*3 20.2 C 0 km/h
1292 02-06-2003 00:49:01 20 C 12.27 g/m*3 20 C 0 km/h
1293 02-06-2003 00:59:01 19.8 C 12.3 g/m*3 19.8 C 0 km/h
1294 02-06-2003 01:09:01 19.7 C 12.4 g/m*3 19.7 C 0 km/h
1295 02-06-2003 01:19:01 19.6 C 12.32 g/m*3 19.6 C 0 km/h
1296 02-06-2003 01:29:01 19.4 C 12.18 g/m*3 19.4 C 0 km/h
1297 02-06-2003 01:39:01 19.3 C 12.27 g/m*3 19.3 C 0 km/h
1298 02-06-2003 01:49:01 19.1 C 11.97 g/m*3 19.1 C 0 km/h
1299 02-06-2003 01:59:01 18.9 C 11.99 g/m*3 18.9 C 0 km/h
1300 02-06-2003 02:09:01 18.9 C 11.99 g/m*3 18.9 C 0 km/h
Sensor: Nr:Datum:Temp:Abs-Feuchte:Windchill:Wind:
Aussen-T/F 1301 02-06-2003 02:19:01 19.1 C 11.97 g/m*3 19.1 C 0 km/h
1302 02-06-2003 02:29:01 18.7 C 12.01 g/m*3 18.7 C 0 km/h
1303 02-06-2003 02:39:01 18.5 C 12.02 g/m*3 18.5 C 0 km/h
1304 02-06-2003 02:49:01 18.5 C 12.18 g/m*3 18.5 C 0 km/h
1305 02-06-2003 02:59:01 18.2 C 12.12 g/m*3 18.2 C 0 km/h
1306 02-06-2003 03:09:01 18.1 C 11.9 g/m*3 18.1 C 0 km/h
1307 02-06-2003 03:19:01 17.8 C 11.99 g/m*3 17.8 C 0 km/h
1308 02-06-2003 03:29:01 17.8 C 11.99 g/m*3 17.8 C 0 km/h
1309 02-06-2003 03:39:01 17.8 C 11.99 g/m*3 17.8 C 0 km/h
1310 02-06-2003 03:49:01 17.7 C 11.92 g/m*3 17.7 C 0 km/h
1311 02-06-2003 03:59:01 17.7 C 12.07 g/m*3 17.7 C 0 km/h
1312 02-06-2003 04:09:01 17.5 C 11.93 g/m*3 17.5 C 0 km/h
1313 02-06-2003 04:19:01 17.4 C 12 g/m*3 17.4 C 0 km/h
1314 02-06-2003 04:29:01 17.5 C 11.93 g/m*3 17.5 C 0 km/h
1315 02-06-2003 04:39:01 17.3 C 11.93 g/m*3 17.3 C 0 km/h
1316 02-06-2003 04:49:01 17.4 C 12 g/m*3 17.4 C 0 km/h
1317 02-06-2003 04:59:01 17.2 C 11.86 g/m*3 17.2 C 0 km/h
1318 02-06-2003 05:09:01 17 C 11.72 g/m*3 17 C 0 km/h
1319 02-06-2003 05:19:01 17 C 11.87 g/m*3 17 C 0 km/h
1320 02-06-2003 05:29:01 16.8 C 11.72 g/m*3 16.8 C 0 km/h
1321 02-06-2003 05:39:01 16.7 C 11.8 g/m*3 16.7 C 0 km/h
1322 02-06-2003 05:49:01 16.6 C 11.72 g/m*3 16.6 C 0 km/h
1323 02-06-2003 05:59:01 16.7 C 11.8 g/m*3 16.7 C 0 km/h
1324 02-06-2003 06:09:01 16.7 C 11.8 g/m*3 16.7 C 0 km/h
1325 02-06-2003 06:19:01 16.7 C 11.8 g/m*3 16.7 C 0 km/h
Sensor: Nr:Datum:Temp:Abs-Feuchte:Windchill:Wind:
Aussen-T/F 1326 02-06-2003 06:29:01 16.8 C 11.87 g/m*3 16.8 C 0 km/h
1327 02-06-2003 06:39:01 17 C 11.87 g/m*3 17 C 0 km/h
1328 02-06-2003 06:49:01 17 C 11.87 g/m*3 17 C 0 km/h
1329 02-06-2003 06:59:01 17.1 C 11.94 g/m*3 17.1 C 0 km/h
1330 02-06-2003 07:09:01 17.4 C 12.15 g/m*3 17.4 C 0 km/h
1331 02-06-2003 07:19:01 17.7 C 12.07 g/m*3 17.7 C 0 km/h
1332 02-06-2003 07:29:01 17.9 C 12.21 g/m*3 17.9 C 0 km/h
1333 02-06-2003 07:39:01 18 C 11.98 g/m*3 18 C 0 km/h
1334 02-06-2003 07:49:01 18.1 C 12.21 g/m*3 18.1 C 0 km/h
1335 02-06-2003 07:59:01 18.4 C 11.95 g/m*3 18.4 C 0 km/h
1336 02-06-2003 08:09:01 18.5 C 12.18 g/m*3 18.5 C 0 km/h
1337 02-06-2003 08:19:01 18.7 C 12.33 g/m*3 18.7 C 0 km/h
1338 02-06-2003 08:29:01 19.1 C 12.29 g/m*3 19.1 C 0 km/h
1339 02-06-2003 08:39:01 19.5 C 12.42 g/m*3 19.5 C 0 km/h
1340 02-06-2003 08:49:01 20 C 12.44 g/m*3 20 C 0 km/h
1341 02-06-2003 08:59:01 20.4 C 12.74 g/m*3 20.4 C 0 km/h
1342 02-06-2003 09:09:01 20.8 C 12.67 g/m*3 20.8 C 0 km/h
1343 02-06-2003 09:19:01 21.5 C 13.01 g/m*3 21.5 C 0 km/h
1344 02-06-2003 09:29:01 22.2 C 12.76 g/m*3 22.2 C 0 km/h
1345 02-06-2003 09:39:01 23 C 12.95 g/m*3 23 C 0 km/h
1346 02-06-2003 09:49:01 23.5 C 13.32 g/m*3 23.5 C 0 km/h
1347 02-06-2003 09:59:01 24 C 12.84 g/m*3 24 C 0 km/h
1348 02-06-2003 10:09:01 24.7 C 12.45 g/m*3 24.7 C 0 km/h
1349 02-06-2003 10:19:01 25.2 C 12.8 g/m*3 25.2 C 0 km/h
1350 02-06-2003 10:29:01 25.4 C 13.18 g/m*3 25.4 C 0 km/h
Sensor: Nr:Datum:Temp:Abs-Feuchte:Windchill:Wind:
Aussen-T/F 1351 02-06-2003 10:39:02 26 C 12.66 g/m*3 26 C 0 km/h
1352 02-06-2003 10:49:02 26.4 C 12.2 g/m*3 26.4 C 0 km/h
1353 02-06-2003 10:59:02 26.7 C 12.15 g/m*3 26.7 C 0 km/h
1354 02-06-2003 11:09:01 26.9 C 12.8 g/m*3 26.9 C 0 km/h
1355 02-06-2003 11:19:01 27.1 C 12.42 g/m*3 27.1 C 0 km/h
1356 02-06-2003 11:29:01 27.3 C 12.56 g/m*3 27.3 C 0 km/h
1357 02-06-2003 11:39:03 27.3 C 12.3 g/m*3 27.3 C 0 km/h
1358 02-06-2003 11:49:03 28.8 C 12.22 g/m*3 28.8 C 0 km/h
1359 02-06-2003 11:59:03 27.9 C 11.9 g/m*3 27.9 C 0 km/h
1360 02-06-2003 12:09:02 27.8 C 12.37 g/m*3 27.8 C 0 km/h
1361 02-06-2003 12:19:02 27.4 C 12.63 g/m*3 27.4 C 0 km/h
1362 02-06-2003 12:29:02 27.9 C 12.98 g/m*3 27.9 C 0 km/h
1363 02-06-2003 12:39:00 27.6 C 13.3 g/m*3 27.6 C 0 km/h
1364 02-06-2003 12:49:00 28 C 11.69 g/m*3 28 C 0 km/h
1365 02-06-2003 12:59:00 27.9 C 12.44 g/m*3 27.9 C 0 km/h
1366 02-06-2003 13:09:00 28.7 C 12.15 g/m*3 28.7 C 0 km/h
1367 02-06-2003 13:19:00 29.5 C 11.22 g/m*3 29.5 C 0 km/h
1368 02-06-2003 13:29:00 29.6 C 10.98 g/m*3 29.6 C 0 km/h
1369 02-06-2003 13:39:01 29.1 C 10.97 g/m*3 29.1 C 0 km/h
1370 02-06-2003 13:49:01 29.2 C 10.74 g/m*3 29.2 C 0 km/h
1371 02-06-2003 13:59:01 29.1 C 11.26 g/m*3 29.1 C 0 km/h
1372 02-06-2003 14:09:01 28.4 C 11.67 g/m*3 28.4 C 0 km/h
1373 02-06-2003 14:19:01 29.1 C 11.55 g/m*3 29.1 C 0 km/h
1374 02-06-2003 14:29:01 29.6 C 11.57 g/m*3 29.6 C 0 km/h
1375 02-06-2003 14:39:01 29.5 C 11.81 g/m*3 29.5 C 0 km/h
Sensor: Nr:Datum:Temp:Abs-Feuchte:Windchill:Wind:
Aussen-T/F 1376 02-06-2003 14:49:01 29.5 C 11.22 g/m*3 29.5 C 0 km/h
1377 02-06-2003 14:59:01 30 C 11.22 g/m*3 30 C 0 km/h
1378 02-06-2003 15:09:02 29.9 C 10.86 g/m*3 29.9 C 0 km/h
1379 02-06-2003 15:19:02 30.2 C 10.73 g/m*3 30.2 C 0 km/h
1380 02-06-2003 15:29:02 30 C 10.61 g/m*3 30 C 0 km/h
1381 02-06-2003 15:39:01 30.3 C 10.79 g/m*3 30.3 C 0 km/h
1382 02-06-2003 15:49:01 30.4 C 10.54 g/m*3 30.4 C 0 km/h
1383 02-06-2003 15:59:01 30.5 C 10.59 g/m*3 30.5 C 0 km/h
1384 02-06-2003 16:09:01 30.4 C 10.54 g/m*3 30.4 C 0 km/h
1385 02-06-2003 16:19:01 30.5 C 10.59 g/m*3 30.5 C 0 km/h
1386 02-06-2003 16:29:01 30.6 C 10.02 g/m*3 30.6 C 0 km/h
1387 02-06-2003 16:39:01 30.4 C 10.54 g/m*3 30.4 C 0 km/h
1388 02-06-2003 16:49:01 30.1 C 10.67 g/m*3 30.1 C 0 km/h
1389 02-06-2003 16:59:01 30.4 C 10.85 g/m*3 30.4 C 0 km/h
1390 02-06-2003 17:09:00 30.4 C 11.16 g/m*3 30.4 C 0 km/h
1391 02-06-2003 17:19:00 30.5 C 11.53 g/m*3 30.5 C 0 km/h
1392 02-06-2003 17:39:01 28.3 C 11.61 g/m*3 28.3 C 0 km/h
1393 02-06-2003 17:49:01 28.3 C 11.61 g/m*3 28.3 C 0 km/h
1394 02-06-2003 17:59:01 28.7 C 11.59 g/m*3 28.7 C 0 km/h
1395 02-06-2003 18:09:02 29.3 C 10.51 g/m*3 29.3 C 0 km/h
1396 02-06-2003 18:19:02 29.3 C 10.8 g/m*3 29.3 C 0 km/h
1397 02-06-2003 18:29:02 28.9 C 11.14 g/m*3 28.9 C 0 km/h
1398 02-06-2003 18:39:01 28.2 C 11.55 g/m*3 28.2 C 0 km/h
1399 02-06-2003 18:49:01 28.1 C 11.76 g/m*3 28.1 C 0 km/h
1400 02-06-2003 18:59:01 27.4 C 11.84 g/m*3 27.4 C 0 km/h
Sensor: Nr:Datum:Temp:Abs-Feuchte:Windchill:Wind:
Aussen-T/F 1401 02-06-2003 19:09:02 27.1 C 11.65 g/m*3 27.1 C 0 km/h
1402 02-06-2003 19:19:02 27 C 11.58 g/m*3 27 C 0 km/h
1403 02-06-2003 19:29:02 25.6 C 14.52 g/m*3 25.6 C 0 km/h
1404 02-06-2003 19:39:01 26.7 C 14.17 g/m*3 26.7 C 0 km/h
1405 02-06-2003 19:49:01 27.5 C 13.23 g/m*3 27.5 C 0 km/h
1406 02-06-2003 19:59:01 27.7 C 12.04 g/m*3 27.7 C 0 km/h
1407 02-06-2003 20:09:01 27.9 C 12.17 g/m*3 27.9 C 0 km/h
1408 02-06-2003 20:19:01 27.5 C 11.38 g/m*3 27.5 C 0 km/h
1409 02-06-2003 20:29:01 26.3 C 11.64 g/m*3 26.3 C 0 km/h
1410 02-06-2003 20:39:01 25.6 C 11.9 g/m*3 25.6 C 0 km/h
1411 02-06-2003 20:49:01 24.8 C 12.06 g/m*3 24.8 C 0 km/h
1412 02-06-2003 20:59:01 24.5 C 11.86 g/m*3 24.5 C 0 km/h
1413 02-06-2003 21:09:01 24.3 C 12.17 g/m*3 24.3 C 0 km/h
1414 02-06-2003 21:19:01 24 C 12.18 g/m*3 24 C 0 km/h
1415 02-06-2003 21:29:01 23.6 C 12.34 g/m*3 23.6 C 0 km/h
1416 02-06-2003 21:39:01 23.6 C 12.55 g/m*3 23.6 C 0 km/h
1417 02-06-2003 21:49:01 23.3 C 12.13 g/m*3 23.3 C 0 km/h
1418 02-06-2003 21:59:01 23.2 C 11.85 g/m*3 23.2 C 0 km/h
1419 02-06-2003 22:10:00 23.1 C 11.78 g/m*3 23.1 C 0 km/h
1420 02-06-2003 22:20:00 23 C 11.72 g/m*3 23 C 0 km/h
1421 02-06-2003 22:30:00 22.9 C 11.65 g/m*3 22.9 C 0 km/h
1422 02-06-2003 22:40:00 22.7 C 11.72 g/m*3 22.7 C 0 km/h
1423 02-06-2003 22:50:00 22.6 C 11.85 g/m*3 22.6 C 0 km/h
1424 02-06-2003 23:00:00 22.5 C 11.98 g/m*3 22.5 C 0 km/h
1425 02-06-2003 23:10:00 22.3 C 12.05 g/m*3 22.3 C 0 km/h
Sensor: Nr:Datum:Temp:Abs-Feuchte:Windchill:Wind:
Aussen-T/F 1426 02-06-2003 23:20:00 22.2 C 11.98 g/m*3 22.2 C 0 km/h
1427 02-06-2003 23:30:00 22.1 C 12.1 g/m*3 22.1 C 0 km/h
1428 02-06-2003 23:40:00 21.8 C 12.28 g/m*3 21.8 C 0 km/h
1429 02-06-2003 23:50:00 21.8 C 12.28 g/m*3 21.8 C 0 km/h

Legende:
   Min
   Max


Maximal/Minimal-Werte vom 24.05.2003 - 02.06.2003

Sensor Min Max Avg
Temp
(Aussen-T/F)
12.3 °C
26-05-2003  05:12:01
33.3 °C
30-05-2003  16:26:01
20.79 °C
Abs-Feuchte
(Aussen-T/F)
6.11 g/m*3
26-05-2003  17:32:00
15.01 g/m*3
31-05-2003  18:37:02
10.27 g/m*3
Windchill
(Aussen-T/F)
12.3 C
26-05-2003  05:12:01
33.3 C
30-05-2003  16:26:01
20.78 C

Die Daten stammen von einer Davis Vantage Pro 2 Wetter-Station und werden unter Linux mit der Software wview2wettercgi und aufbereitet. Alle Angaben erfolgen ohne Gewähr für ihre Vollständigkeit oder Richtigkeit.
Kontakt: Rainer Krienke krienke@uni-koblenz.de . Meine Webseiten an der Uni Koblenz oder privat.
Version: $Revision: 0.78 $